<?xml version='1.0' encoding='UTF-8'?><gpx version="1.1" creator="JPX - https://github.com/jenetics/jpx" xmlns="http://www.topografix.com/GPX/1/1"><trk><trkseg><trkpt lat="45.37519799212179" lon="10.52980184765851"><ele>121.0</ele><time>2026-04-04T13:49:31.999Z</time></trkpt><trkpt lat="45.375204617572074" lon="10.529895510350254"><ele>120.99999999999999</ele><time>2026-04-04T13:49:35.999Z</time></trkpt><trkpt lat="45.375212514442495" lon="10.53002199332348"><ele>121.0</ele><time>2026-04-04T13:49:39.999Z</time></trkpt><trkpt lat="45.37520426127482" lon="10.530115015382684"><ele>121.0</ele><time>2026-04-04T13:49:42.999Z</time></trkpt><trkpt lat="45.37522270183914" lon="10.530218977493755"><ele>120.99999999999999</ele><time>2026-04-04T13:49:45.999Z</time></trkpt><trkpt lat="45.37521738354197" lon="10.530311331700132"><ele>121.0</ele><time>2026-04-04T13:49:49.999Z</time></trkpt><trkpt lat="45.3752410112482" lon="10.530418720945462"><ele>121.0</ele><time>2026-04-04T13:49:53.999Z</time></trkpt><trkpt lat="45.375262374603935" lon="10.53050559851247"><ele>121.00000000000001</ele><time>2026-04-04T13:49:56.999Z</time></trkpt><trkpt lat="45.3752773025055" lon="10.530597188777728"><ele>121.0</ele><time>2026-04-04T13:49:59.999Z</time></trkpt><trkpt lat="45.37529818602016" lon="10.53070564909028"><ele>121.0</ele><time>2026-04-04T13:50:02.999Z</time></trkpt><trkpt lat="45.375286196802534" lon="10.530816851889963"><ele>121.0</ele><time>2026-04-04T13:50:05.999Z</time></trkpt><trkpt lat="45.37530556267661" lon="10.530933664722323"><ele>121.00000000000001</ele><time>2026-04-04T13:50:08.998Z</time></trkpt><trkpt lat="45.37530592380951" lon="10.531045746866695"><ele>121.0</ele><time>2026-04-04T13:50:11.998Z</time></trkpt><trkpt lat="45.37531909064658" lon="10.53115508176607"><ele>121.50000000000001</ele><time>2026-04-04T13:50:14.998Z</time></trkpt><trkpt lat="45.37533290907363" lon="10.53126336640707"><ele>122.0</ele><time>2026-04-04T13:50:17.998Z</time></trkpt><trkpt lat="45.375339715078006" lon="10.531378266261909"><ele>122.5</ele><time>2026-04-04T13:50:20.998Z</time></trkpt><trkpt lat="45.37533815770517" lon="10.531484459699193"><ele>123.0</ele><time>2026-04-04T13:50:23.998Z</time></trkpt><trkpt lat="45.37534626872764" lon="10.531589945533636"><ele>123.50000000000001</ele><time>2026-04-04T13:50:26.998Z</time></trkpt><trkpt lat="45.375357691016106" lon="10.53169771811442"><ele>124.0</ele><time>2026-04-04T13:50:29.998Z</time></trkpt><trkpt lat="45.375361672449635" lon="10.53181644573447"><ele>124.00000000000001</ele><time>2026-04-04T13:50:33.998Z</time></trkpt><trkpt lat="45.375380771412864" lon="10.531930142165264"><ele>124.0</ele><time>2026-04-04T13:50:36.998Z</time></trkpt><trkpt lat="45.375389773640876" lon="10.53203498605608"><ele>124.0</ele><time>2026-04-04T13:50:39.998Z</time></trkpt><trkpt lat="45.37541017803691" lon="10.532152241576577"><ele>124.0</ele><time>2026-04-04T13:50:42.998Z</time></trkpt><trkpt lat="45.3754234522146" lon="10.532256662437518"><ele>124.00000000000001</ele><time>2026-04-04T13:50:45.998Z</time></trkpt><trkpt lat="45.37543035979034" lon="10.532368747276987"><ele>124.0</ele><time>2026-04-04T13:50:48.998Z</time></trkpt><trkpt lat="45.37544661854346" lon="10.532485669350201"><ele>124.50000000000001</ele><time>2026-04-04T13:50:51.998Z</time></trkpt><trkpt lat="45.375452621878" lon="10.53259424703896"><ele>125.0</ele><time>2026-04-04T13:50:54.998Z</time></trkpt><trkpt lat="45.37544009376058" lon="10.532713350457719"><ele>125.5</ele><time>2026-04-04T13:50:57.998Z</time></trkpt><trkpt lat="45.37542344256472" lon="10.532821347949922"><ele>126.0</ele><time>2026-04-04T13:51:00.998Z</time></trkpt><trkpt lat="45.375417453256816" lon="10.532931015968261"><ele>126.50000000000001</ele><time>2026-04-04T13:51:03.998Z</time></trkpt><trkpt lat="45.37540341578046" lon="10.533031506102585"><ele>127.0</ele><time>2026-04-04T13:51:06.998Z</time></trkpt><trkpt lat="45.37538391923987" lon="10.533149385266043"><ele>127.71428571428572</ele><time>2026-04-04T13:51:09.998Z</time></trkpt><trkpt lat="45.375385409404174" lon="10.533252772129657"><ele>128.42857142857142</ele><time>2026-04-04T13:51:12.999Z</time></trkpt><trkpt lat="45.37538229988117" lon="10.533364208057453"><ele>129.14285714285714</ele><time>2026-04-04T13:51:15.998Z</time></trkpt><trkpt lat="45.37538118463261" lon="10.533472441792098"><ele>129.85714285714286</ele><time>2026-04-04T13:51:18.998Z</time></trkpt><trkpt lat="45.375377142798456" lon="10.533564327559077"><ele>130.57142857142858</ele><time>2026-04-04T13:51:21.998Z</time></trkpt><trkpt lat="45.37537666009275" lon="10.533667308753282"><ele>131.28571428571428</ele><time>2026-04-04T13:51:24.998Z</time></trkpt><trkpt lat="45.3753610553948" lon="10.533764363259127"><ele>132.0</ele><time>2026-04-04T13:51:27.998Z</time></trkpt><trkpt lat="45.375349921860014" lon="10.533859207759377"><ele>132.42857142857142</ele><time>2026-04-04T13:51:30.998Z</time></trkpt><trkpt lat="45.375346564689664" lon="10.533959043238744"><ele>132.85714285714286</ele><time>2026-04-04T13:51:33.998Z</time></trkpt><trkpt lat="45.37532331585856" lon="10.534050361683404"><ele>133.28571428571428</ele><time>2026-04-04T13:51:36.998Z</time></trkpt><trkpt lat="45.3752615017144" lon="10.534067700813129"><ele>133.71428571428572</ele><time>2026-04-04T13:51:39.998Z</time></trkpt><trkpt lat="45.37518628290154" lon="10.534085245435856"><ele>134.14285714285714</ele><time>2026-04-04T13:51:44.998Z</time></trkpt><trkpt lat="45.375118097816475" lon="10.534131935877731"><ele>134.57142857142856</ele><time>2026-04-04T13:51:49.998Z</time></trkpt><trkpt lat="45.375044614796884" lon="10.534147345067794"><ele>135.0</ele><time>2026-04-04T13:51:53.998Z</time></trkpt><trkpt lat="45.37496657810348" lon="10.534129320704556"><ele>135.0</ele><time>2026-04-04T13:51:57.998Z</time></trkpt><trkpt lat="45.374904712639854" lon="10.534105262786237"><ele>135.0</ele><time>2026-04-04T13:52:00.998Z</time></trkpt><trkpt lat="45.37483865130848" lon="10.534097459369486"><ele>135.0</ele><time>2026-04-04T13:52:03.998Z</time></trkpt><trkpt lat="45.37476496918745" lon="10.534144495612441"><ele>135.0</ele><time>2026-04-04T13:52:07.998Z</time></trkpt><trkpt lat="45.374732990334856" lon="10.534226824430442"><ele>135.0</ele><time>2026-04-04T13:52:10.997Z</time></trkpt><trkpt lat="45.374694457009156" lon="10.534298326728663"><ele>135.0</ele><time>2026-04-04T13:52:13.997Z</time></trkpt><trkpt lat="45.374641289291645" lon="10.534397094631714"><ele>135.0</ele><time>2026-04-04T13:52:17.997Z</time></trkpt><trkpt lat="45.37461334953725" lon="10.534484910030653"><ele>136.42857142857142</ele><time>2026-04-04T13:52:20.997Z</time></trkpt><trkpt lat="45.374587787005325" lon="10.534594741260626"><ele>137.85714285714283</ele><time>2026-04-04T13:52:24.997Z</time></trkpt><trkpt lat="45.37456660907085" lon="10.534704045895635"><ele>139.28571428571428</ele><time>2026-04-04T13:52:27.997Z</time></trkpt><trkpt lat="45.37453901552074" lon="10.534788260418697"><ele>140.71428571428572</ele><time>2026-04-04T13:52:30.997Z</time></trkpt><trkpt lat="45.374503777258894" lon="10.534876529114069"><ele>142.14285714285717</ele><time>2026-04-04T13:52:33.997Z</time></trkpt><trkpt lat="45.374457357347836" lon="10.534967444189133"><ele>143.57142857142858</ele><time>2026-04-04T13:52:36.997Z</time></trkpt><trkpt lat="45.374420001938475" lon="10.535056489680377"><ele>145.0</ele><time>2026-04-04T13:52:39.997Z</time></trkpt><trkpt lat="45.37439566441988" lon="10.53514485708962"><ele>145.0</ele><time>2026-04-04T13:52:42.997Z</time></trkpt><trkpt lat="45.37438591178418" lon="10.535252797600982"><ele>145.0</ele><time>2026-04-04T13:52:45.997Z</time></trkpt><trkpt lat="45.374394581606175" lon="10.53536886018418"><ele>145.0</ele><time>2026-04-04T13:52:48.997Z</time></trkpt><trkpt lat="45.37437967923096" lon="10.535498410348197"><ele>145.0</ele><time>2026-04-04T13:52:51.997Z</time></trkpt><trkpt lat="45.37436821027927" lon="10.535617125617533"><ele>145.0</ele><time>2026-04-04T13:52:54.997Z</time></trkpt><trkpt lat="45.37434382767415" lon="10.535714745037888"><ele>145.0</ele><time>2026-04-04T13:52:57.997Z</time></trkpt><trkpt lat="45.3743516049491" lon="10.535813279250245"><ele>144.66666666666669</ele><time>2026-04-04T13:52:59.997Z</time></trkpt><trkpt lat="45.374340434099466" lon="10.535926874023735"><ele>144.33333333333334</ele><time>2026-04-04T13:53:02.996Z</time></trkpt><trkpt lat="45.37432993492937" lon="10.536026412211418"><ele>144.0</ele><time>2026-04-04T13:53:04.996Z</time></trkpt><trkpt lat="45.37429941398214" lon="10.53610482289129"><ele>143.66666666666666</ele><time>2026-04-04T13:53:06.996Z</time></trkpt><trkpt lat="45.37426133198509" lon="10.536205173524396"><ele>143.33333333333331</ele><time>2026-04-04T13:53:09.996Z</time></trkpt><trkpt lat="45.374280390521825" lon="10.536305937932713"><ele>143.0</ele><time>2026-04-04T13:53:11.996Z</time></trkpt><trkpt lat="45.374268205476184" lon="10.536429213243423"><ele>141.5</ele><time>2026-04-04T13:53:14.997Z</time></trkpt><trkpt lat="45.374261927310116" lon="10.53655482658702"><ele>140.0</ele><time>2026-04-04T13:53:17.996Z</time></trkpt><trkpt lat="45.374242587650215" lon="10.536669761752805"><ele>138.5</ele><time>2026-04-04T13:53:20.996Z</time></trkpt><trkpt lat="45.374231725647455" lon="10.5367981001327"><ele>137.0</ele><time>2026-04-04T13:53:23.996Z</time></trkpt><trkpt lat="45.37423022293304" lon="10.536915642880599"><ele>135.5</ele><time>2026-04-04T13:53:26.996Z</time></trkpt><trkpt lat="45.374226398757486" lon="10.537037652479274"><ele>134.0</ele><time>2026-04-04T13:53:29.996Z</time></trkpt><trkpt lat="45.37420761765967" lon="10.537175370765903"><ele>133.0</ele><time>2026-04-04T13:53:32.996Z</time></trkpt><trkpt lat="45.374199724623395" lon="10.537297947228849"><ele>132.0</ele><time>2026-04-04T13:53:35.996Z</time></trkpt><trkpt lat="45.374195230534895" lon="10.537390622940107"><ele>131.0</ele><time>2026-04-04T13:53:37.996Z</time></trkpt><trkpt lat="45.374198161455105" lon="10.537523495155419"><ele>130.0</ele><time>2026-04-04T13:53:40.996Z</time></trkpt><trkpt lat="45.37419968902558" lon="10.537617987136013"><ele>129.0</ele><time>2026-04-04T13:53:42.996Z</time></trkpt><trkpt lat="45.374191484990064" lon="10.537745122062423"><ele>128.0</ele><time>2026-04-04T13:53:45.996Z</time></trkpt><trkpt lat="45.37418049136271" lon="10.537835957995128"><ele>128.16666666666666</ele><time>2026-04-04T13:53:47.996Z</time></trkpt><trkpt lat="45.374169025123706" lon="10.537962528789667"><ele>128.33333333333331</ele><time>2026-04-04T13:53:50.996Z</time></trkpt><trkpt lat="45.37415031492963" lon="10.538050610590293"><ele>128.5</ele><time>2026-04-04T13:53:52.996Z</time></trkpt><trkpt lat="45.37412386727938" lon="10.5381793188842"><ele>128.66666666666666</ele><time>2026-04-04T13:53:55.995Z</time></trkpt><trkpt lat="45.37410405123127" lon="10.538311134026197"><ele>128.83333333333334</ele><time>2026-04-04T13:53:58.995Z</time></trkpt><trkpt lat="45.374088021240986" lon="10.538400478374356"><ele>129.0</ele><time>2026-04-04T13:54:00.995Z</time></trkpt><trkpt lat="45.37406846925168" lon="10.538509682374135"><ele>128.99999999999997</ele><time>2026-04-04T13:54:03.995Z</time></trkpt><trkpt lat="45.37406291524866" lon="10.53860362489685"><ele>129.0</ele><time>2026-04-04T13:54:05.995Z</time></trkpt><trkpt lat="45.37404627836495" lon="10.538706188322642"><ele>129.0</ele><time>2026-04-04T13:54:08.995Z</time></trkpt><trkpt lat="45.374034679981676" lon="10.53880475581839"><ele>129.0</ele><time>2026-04-04T13:54:10.995Z</time></trkpt><trkpt lat="45.374030193444014" lon="10.538905926623364"><ele>129.0</ele><time>2026-04-04T13:54:12.995Z</time></trkpt><trkpt lat="45.37401801760477" lon="10.53903624892076"><ele>128.99999999999997</ele><time>2026-04-04T13:54:15.995Z</time></trkpt><trkpt lat="45.37401200544323" lon="10.539126198309658"><ele>129.0</ele><time>2026-04-04T13:54:17.995Z</time></trkpt><trkpt lat="45.37401899351637" lon="10.539258472401029"><ele>129.5</ele><time>2026-04-04T13:54:20.995Z</time></trkpt><trkpt lat="45.37402063131054" lon="10.539385988990494"><ele>130.0</ele><time>2026-04-04T13:54:23.995Z</time></trkpt><trkpt lat="45.37402237790352" lon="10.539500389389413"><ele>130.5</ele><time>2026-04-04T13:54:26.995Z</time></trkpt><trkpt lat="45.3740271680152" lon="10.53960802563178"><ele>131.0</ele><time>2026-04-04T13:54:30.995Z</time></trkpt><trkpt lat="45.374007085725694" lon="10.539715468267378"><ele>131.5</ele><time>2026-04-04T13:54:36.995Z</time></trkpt><trkpt lat="45.37398990502643" lon="10.53982062569503"><ele>132.0</ele><time>2026-04-04T13:54:41.995Z</time></trkpt><trkpt lat="45.37398653151782" lon="10.539920342653142"><ele>131.66666666666666</ele><time>2026-04-04T13:54:45.995Z</time></trkpt><trkpt lat="45.37399003006244" lon="10.540020068665418"><ele>131.33333333333334</ele><time>2026-04-04T13:54:49.995Z</time></trkpt><trkpt lat="45.37399774238302" lon="10.540127926065395"><ele>131.0</ele><time>2026-04-04T13:54:54.994Z</time></trkpt><trkpt lat="45.37395801917857" lon="10.540222301535657"><ele>130.66666666666669</ele><time>2026-04-04T13:54:58.994Z</time></trkpt><trkpt lat="45.3738899181754" lon="10.540278162630608"><ele>130.33333333333334</ele><time>2026-04-04T13:55:02.994Z</time></trkpt><trkpt lat="45.37383859596181" lon="10.540334730205368"><ele>130.0</ele><time>2026-04-04T13:55:05.994Z</time></trkpt><trkpt lat="45.37382051069313" lon="10.540463121250207"><ele>130.83333333333334</ele><time>2026-04-04T13:55:08.994Z</time></trkpt><trkpt lat="45.3737953676649" lon="10.540561547219754"><ele>131.66666666666669</ele><time>2026-04-04T13:55:11.994Z</time></trkpt><trkpt lat="45.37377911877693" lon="10.540678859618621"><ele>132.5</ele><time>2026-04-04T13:55:14.996Z</time></trkpt><trkpt lat="45.37377654019741" lon="10.540787899645238"><ele>133.33333333333334</ele><time>2026-04-04T13:55:17.996Z</time></trkpt><trkpt lat="45.373751615845244" lon="10.540893629757258"><ele>134.16666666666666</ele><time>2026-04-04T13:55:20.995Z</time></trkpt><trkpt lat="45.37373050353868" lon="10.540989243013286"><ele>135.0</ele><time>2026-04-04T13:55:23.995Z</time></trkpt><trkpt lat="45.37370910143984" lon="10.541091123011753"><ele>135.0</ele><time>2026-04-04T13:55:26.995Z</time></trkpt><trkpt lat="45.37371974742691" lon="10.54121180711962"><ele>135.0</ele><time>2026-04-04T13:55:29.995Z</time></trkpt><trkpt lat="45.37375885207161" lon="10.541324718848134"><ele>135.0</ele><time>2026-04-04T13:55:32.995Z</time></trkpt><trkpt lat="45.37375368722059" lon="10.541432433190232"><ele>135.0</ele><time>2026-04-04T13:55:35.995Z</time></trkpt><trkpt lat="45.3737592314229" lon="10.541552135408972"><ele>135.0</ele><time>2026-04-04T13:55:38.995Z</time></trkpt><trkpt lat="45.37378398341332" lon="10.541666351298138"><ele>135.0</ele><time>2026-04-04T13:55:41.995Z</time></trkpt><trkpt lat="45.37381798523367" lon="10.54177495540131"><ele>135.33333333333334</ele><time>2026-04-04T13:55:44.995Z</time></trkpt><trkpt lat="45.37385534719667" lon="10.541856987653235"><ele>135.66666666666666</ele><time>2026-04-04T13:55:46.995Z</time></trkpt><trkpt lat="45.37386172591211" lon="10.541969520383851"><ele>136.0</ele><time>2026-04-04T13:55:49.995Z</time></trkpt><trkpt lat="45.37385656962975" lon="10.542082575456558"><ele>136.33333333333331</ele><time>2026-04-04T13:55:52.995Z</time></trkpt><trkpt lat="45.37388984186215" lon="10.542207216678241"><ele>136.66666666666666</ele><time>2026-04-04T13:55:55.995Z</time></trkpt><trkpt lat="45.3739062576237" lon="10.542324408610192"><ele>137.0</ele><time>2026-04-04T13:55:58.995Z</time></trkpt><trkpt lat="45.373930606686564" lon="10.54242902213709"><ele>137.0</ele><time>2026-04-04T13:56:01.995Z</time></trkpt><trkpt lat="45.373935290512954" lon="10.542521902552021"><ele>137.0</ele><time>2026-04-04T13:56:04.995Z</time></trkpt><trkpt lat="45.37388414239244" lon="10.542601085145531"><ele>137.0</ele><time>2026-04-04T13:56:08.995Z</time></trkpt><trkpt lat="45.3738486855352" lon="10.542693476646292"><ele>137.0</ele><time>2026-04-04T13:56:12.995Z</time></trkpt><trkpt lat="45.37377681893575" lon="10.542725173486861"><ele>137.0</ele><time>2026-04-04T13:56:17.994Z</time></trkpt><trkpt lat="45.37364923772711" lon="10.542821960055944"><ele>137.0</ele><time>2026-04-04T13:56:29.994Z</time></trkpt><trkpt lat="45.3735862611536" lon="10.542754456843564"><ele>136.5</ele><time>2026-04-04T13:56:33.994Z</time></trkpt><trkpt lat="45.373531035260534" lon="10.542674013495782"><ele>136.0</ele><time>2026-04-04T13:56:37.994Z</time></trkpt><trkpt lat="45.37347298851219" lon="10.54261701674416"><ele>135.5</ele><time>2026-04-04T13:56:40.994Z</time></trkpt><trkpt lat="45.37340328765044" lon="10.542572954398103"><ele>135.0</ele><time>2026-04-04T13:56:43.994Z</time></trkpt><trkpt lat="45.37333237988627" lon="10.542535484868191"><ele>134.5</ele><time>2026-04-04T13:56:46.994Z</time></trkpt><trkpt lat="45.37325995498103" lon="10.542510925594794"><ele>134.0</ele><time>2026-04-04T13:56:49.994Z</time></trkpt><trkpt lat="45.37317753755033" lon="10.54249930360994"><ele>134.0</ele><time>2026-04-04T13:56:52.994Z</time></trkpt><trkpt lat="45.37310008672078" lon="10.542460087261254"><ele>134.0</ele><time>2026-04-04T13:56:55.994Z</time></trkpt><trkpt lat="45.37300461096712" lon="10.54244958845408"><ele>134.0</ele><time>2026-04-04T13:56:58.994Z</time></trkpt><trkpt lat="45.372937601693586" lon="10.542439510001822"><ele>134.0</ele><time>2026-04-04T13:57:00.994Z</time></trkpt><trkpt lat="45.37284195861847" lon="10.542424910625115"><ele>134.0</ele><time>2026-04-04T13:57:03.994Z</time></trkpt><trkpt lat="45.372771057537626" lon="10.542435090783508"><ele>134.0</ele><time>2026-04-04T13:57:05.994Z</time></trkpt><trkpt lat="45.37268532283194" lon="10.542396813112214"><ele>133.42857142857144</ele><time>2026-04-04T13:57:08.994Z</time></trkpt><trkpt lat="45.372621447845" lon="10.542398811274"><ele>132.85714285714286</ele><time>2026-04-04T13:57:10.994Z</time></trkpt><trkpt lat="45.3725363952053" lon="10.542369805880993"><ele>132.28571428571428</ele><time>2026-04-04T13:57:13.993Z</time></trkpt><trkpt lat="45.372467123908244" lon="10.54236713861971"><ele>131.71428571428572</ele><time>2026-04-04T13:57:15.993Z</time></trkpt><trkpt lat="45.372401591775876" lon="10.54237400370583"><ele>131.14285714285714</ele><time>2026-04-04T13:57:17.993Z</time></trkpt><trkpt lat="45.372339643386304" lon="10.54242062485387"><ele>130.57142857142858</ele><time>2026-04-04T13:57:19.995Z</time></trkpt><trkpt lat="45.372279169913085" lon="10.542499584513841"><ele>130.0</ele><time>2026-04-04T13:57:21.995Z</time></trkpt><trkpt lat="45.37221108551311" lon="10.542549632248546"><ele>129.5</ele><time>2026-04-04T13:57:23.994Z</time></trkpt><trkpt lat="45.372143692652756" lon="10.542579754541903"><ele>129.0</ele><time>2026-04-04T13:57:25.995Z</time></trkpt><trkpt lat="45.37206108773741" lon="10.542566762591221"><ele>128.5</ele><time>2026-04-04T13:57:28.995Z</time></trkpt><trkpt lat="45.37198315534113" lon="10.542535870413358"><ele>128.0</ele><time>2026-04-04T13:57:31.995Z</time></trkpt><trkpt lat="45.37189642947988" lon="10.542524597011134"><ele>127.50000000000001</ele><time>2026-04-04T13:57:34.995Z</time></trkpt><trkpt lat="45.37181118035729" lon="10.542485976263997"><ele>127.0</ele><time>2026-04-04T13:57:37.995Z</time></trkpt><trkpt lat="45.37172766996703" lon="10.54245153457718"><ele>127.00000000000001</ele><time>2026-04-04T13:57:40.995Z</time></trkpt><trkpt lat="45.371648765358934" lon="10.542428855829732"><ele>127.0</ele><time>2026-04-04T13:57:43.995Z</time></trkpt><trkpt lat="45.37158634772724" lon="10.542441657491503"><ele>127.0</ele><time>2026-04-04T13:57:45.995Z</time></trkpt><trkpt lat="45.371519696929234" lon="10.542517434328976"><ele>127.0</ele><time>2026-04-04T13:57:48.994Z</time></trkpt><trkpt lat="45.37148276567191" lon="10.542612135494553"><ele>127.00000000000001</ele><time>2026-04-04T13:57:51.994Z</time></trkpt><trkpt lat="45.3714457997029" lon="10.54270338185999"><ele>127.0</ele><time>2026-04-04T13:57:54.994Z</time></trkpt><trkpt lat="45.37140208111921" lon="10.542783966702817"><ele>127.00000000000001</ele><time>2026-04-04T13:57:57.994Z</time></trkpt><trkpt lat="45.37136116842589" lon="10.542877247297024"><ele>127.0</ele><time>2026-04-04T13:58:00.994Z</time></trkpt><trkpt lat="45.37131555065797" lon="10.542968813256627"><ele>127.0</ele><time>2026-04-04T13:58:03.994Z</time></trkpt><trkpt lat="45.37128064666027" lon="10.543066014098832"><ele>127.0</ele><time>2026-04-04T13:58:06.994Z</time></trkpt><trkpt lat="45.37126161156488" lon="10.543155789418442"><ele>127.00000000000001</ele><time>2026-04-04T13:58:08.994Z</time></trkpt><trkpt lat="45.37125506862145" lon="10.54326361648079"><ele>127.0</ele><time>2026-04-04T13:58:11.994Z</time></trkpt><trkpt lat="45.37124005851414" lon="10.543374125000891"><ele>127.16666666666667</ele><time>2026-04-04T13:58:14.994Z</time></trkpt><trkpt lat="45.37119106623524" lon="10.543494535434402"><ele>127.33333333333334</ele><time>2026-04-04T13:58:17.994Z</time></trkpt><trkpt lat="45.371149270354444" lon="10.543586809239121"><ele>127.5</ele><time>2026-04-04T13:58:19.994Z</time></trkpt><trkpt lat="45.37108414495992" lon="10.543671660151533"><ele>127.66666666666666</ele><time>2026-04-04T13:58:22.994Z</time></trkpt><trkpt lat="45.37101754733729" lon="10.543757364537024"><ele>127.83333333333333</ele><time>2026-04-04T13:58:25.994Z</time></trkpt><trkpt lat="45.37097062374798" lon="10.543819276758805"><ele>128.0</ele><time>2026-04-04T13:58:27.994Z</time></trkpt><trkpt lat="45.37090200170323" lon="10.543903640452474"><ele>127.99999999999999</ele><time>2026-04-04T13:58:30.994Z</time></trkpt><trkpt lat="45.37086014819443" lon="10.543977126137563"><ele>128.0</ele><time>2026-04-04T13:58:32.994Z</time></trkpt><trkpt lat="45.37080326799675" lon="10.544056495784735"><ele>128.0</ele><time>2026-04-04T13:58:35.994Z</time></trkpt><trkpt lat="45.37074518490973" lon="10.54415709591497"><ele>128.0</ele><time>2026-04-04T13:58:38.994Z</time></trkpt><trkpt lat="45.37069210658815" lon="10.54425062660216"><ele>127.99999999999999</ele><time>2026-04-04T13:58:41.994Z</time></trkpt><trkpt lat="45.370638780619544" lon="10.54434553175183"><ele>128.0</ele><time>2026-04-04T13:58:44.994Z</time></trkpt><trkpt lat="45.37059061979917" lon="10.544445339815582"><ele>128.0</ele><time>2026-04-04T13:58:47.993Z</time></trkpt><trkpt lat="45.37055965818192" lon="10.544528492039968"><ele>127.99999999999999</ele><time>2026-04-04T13:58:49.993Z</time></trkpt><trkpt lat="45.37052952978668" lon="10.54462933636004"><ele>128.0</ele><time>2026-04-04T13:58:51.993Z</time></trkpt><trkpt lat="45.37050388227468" lon="10.54472234716726"><ele>128.0</ele><time>2026-04-04T13:58:53.993Z</time></trkpt><trkpt lat="45.3704578101878" lon="10.5447974270607"><ele>127.99999999999999</ele><time>2026-04-04T13:58:55.993Z</time></trkpt><trkpt lat="45.37041760612457" lon="10.544920484695664"><ele>128.0</ele><time>2026-04-04T13:58:58.993Z</time></trkpt><trkpt lat="45.37039484505687" lon="10.545014777317101"><ele>128.0</ele><time>2026-04-04T13:59:00.993Z</time></trkpt><trkpt lat="45.37038134790256" lon="10.545109778607541"><ele>127.83333333333333</ele><time>2026-04-04T13:59:02.993Z</time></trkpt><trkpt lat="45.3703539460966" lon="10.545195688887466"><ele>127.66666666666666</ele><time>2026-04-04T13:59:04.993Z</time></trkpt><trkpt lat="45.370319387739784" lon="10.545304810553178"><ele>127.5</ele><time>2026-04-04T13:59:06.993Z</time></trkpt><trkpt lat="45.37029057813958" lon="10.545409276077786"><ele>127.33333333333334</ele><time>2026-04-04T13:59:08.993Z</time></trkpt><trkpt lat="45.37024843684184" lon="10.545502771292671"><ele>127.16666666666667</ele><time>2026-04-04T13:59:10.993Z</time></trkpt><trkpt lat="45.37018924645061" lon="10.545607014390676"><ele>127.0</ele><time>2026-04-04T13:59:13.993Z</time></trkpt><trkpt lat="45.3701363254805" lon="10.545699871205157"><ele>125.50000000000001</ele><time>2026-04-04T13:59:16.993Z</time></trkpt><trkpt lat="45.3701096275632" lon="10.54578492813963"><ele>124.0</ele><time>2026-04-04T13:59:18.993Z</time></trkpt><trkpt lat="45.370044532013914" lon="10.545857869855771"><ele>122.5</ele><time>2026-04-04T13:59:20.993Z</time></trkpt><trkpt lat="45.369971320064295" lon="10.545944497489058"><ele>121.0</ele><time>2026-04-04T13:59:22.993Z</time></trkpt><trkpt lat="45.36990551332594" lon="10.546031873012884"><ele>119.50000000000001</ele><time>2026-04-04T13:59:24.994Z</time></trkpt><trkpt lat="45.36986235635245" lon="10.546145174906863"><ele>118.0</ele><time>2026-04-04T13:59:26.995Z</time></trkpt><trkpt lat="45.36979824140399" lon="10.546238377958362"><ele>117.50000000000001</ele><time>2026-04-04T13:59:29.995Z</time></trkpt><trkpt lat="45.36974804886797" lon="10.546362404989265"><ele>117.0</ele><time>2026-04-04T13:59:32.995Z</time></trkpt><trkpt lat="45.36969503949991" lon="10.546438722627505"><ele>116.5</ele><time>2026-04-04T13:59:35.995Z</time></trkpt><trkpt lat="45.36963017504389" lon="10.546511254509568"><ele>116.0</ele><time>2026-04-04T13:59:38.995Z</time></trkpt><trkpt lat="45.36957341520751" lon="10.546595042347189"><ele>115.50000000000001</ele><time>2026-04-04T13:59:41.995Z</time></trkpt><trkpt lat="45.36952068500126" lon="10.54664679708085"><ele>115.0</ele><time>2026-04-04T13:59:43.995Z</time></trkpt><trkpt lat="45.36944495042948" lon="10.546689673486208"><ele>114.66666666666667</ele><time>2026-04-04T13:59:46.994Z</time></trkpt><trkpt lat="45.36936747488137" lon="10.546703917104846"><ele>114.33333333333334</ele><time>2026-04-04T13:59:49.994Z</time></trkpt><trkpt lat="45.36930458050166" lon="10.54669751562823"><ele>114.0</ele><time>2026-04-04T13:59:51.994Z</time></trkpt><trkpt lat="45.36924532417232" lon="10.546660627661954"><ele>113.66666666666666</ele><time>2026-04-04T13:59:53.994Z</time></trkpt><trkpt lat="45.36916197497007" lon="10.546665781057857"><ele>113.33333333333333</ele><time>2026-04-04T13:59:56.994Z</time></trkpt><trkpt lat="45.369087478628316" lon="10.546735981717879"><ele>113.0</ele><time>2026-04-04T13:59:59.994Z</time></trkpt><trkpt lat="45.369057249907556" lon="10.546861063516145"><ele>113.0</ele><time>2026-04-04T14:00:02.994Z</time></trkpt><trkpt lat="45.369018184410585" lon="10.546937546766486"><ele>113.0</ele><time>2026-04-04T14:00:04.994Z</time></trkpt><trkpt lat="45.3689883189277" lon="10.547017294753367"><ele>113.0</ele><time>2026-04-04T14:00:06.994Z</time></trkpt><trkpt lat="45.3689645321108" lon="10.54710897308727"><ele>113.0</ele><time>2026-04-04T14:00:08.994Z</time></trkpt><trkpt lat="45.36894216508968" lon="10.5472032159475"><ele>113.0</ele><time>2026-04-04T14:00:10.994Z</time></trkpt><trkpt lat="45.36892846881403" lon="10.547334192255848"><ele>113.0</ele><time>2026-04-04T14:00:13.994Z</time></trkpt><trkpt lat="45.36891137756142" lon="10.547450444577741"><ele>113.0</ele><time>2026-04-04T14:00:16.994Z</time></trkpt><trkpt lat="45.368894838515885" lon="10.547549452954572"><ele>113.16666666666666</ele><time>2026-04-04T14:00:19.994Z</time></trkpt><trkpt lat="45.368871626240455" lon="10.547641776755562"><ele>113.33333333333333</ele><time>2026-04-04T14:00:22.994Z</time></trkpt><trkpt lat="45.368847679276506" lon="10.54774153347203"><ele>113.5</ele><time>2026-04-04T14:00:25.994Z</time></trkpt><trkpt lat="45.36890367456069" lon="10.547856932813703"><ele>113.66666666666666</ele><time>2026-04-04T14:00:28.994Z</time></trkpt><trkpt lat="45.36897421427861" lon="10.547920483133359"><ele>113.83333333333333</ele><time>2026-04-04T14:00:31.994Z</time></trkpt><trkpt lat="45.369048275358935" lon="10.547915156384908"><ele>114.0</ele><time>2026-04-04T14:00:34.994Z</time></trkpt><trkpt lat="45.36919153798258" lon="10.547908813114837"><ele>115.33333333333333</ele><time>2026-04-04T14:00:40.994Z</time></trkpt><trkpt lat="45.36926551217629" lon="10.547920464884237"><ele>116.66666666666666</ele><time>2026-04-04T14:00:43.994Z</time></trkpt><trkpt lat="45.36933686910599" lon="10.54793671304243"><ele>118.0</ele><time>2026-04-04T14:00:46.993Z</time></trkpt><trkpt lat="45.3694089827168" lon="10.547945023399798"><ele>119.33333333333333</ele><time>2026-04-04T14:00:49.993Z</time></trkpt><trkpt lat="45.36948808233449" lon="10.547956067312231"><ele>120.66666666666666</ele><time>2026-04-04T14:00:52.993Z</time></trkpt><trkpt lat="45.369573495794064" lon="10.54794213563121"><ele>122.0</ele><time>2026-04-04T14:00:55.993Z</time></trkpt><trkpt lat="45.36977922665175" lon="10.547933061729053"><ele>122.8</ele><time>2026-04-04T14:01:02.993Z</time></trkpt><trkpt lat="45.369950429422936" lon="10.547959940519585"><ele>123.6</ele><time>2026-04-04T14:01:08.993Z</time></trkpt><trkpt lat="45.37003625065378" lon="10.54798803365989"><ele>124.39999999999999</ele><time>2026-04-04T14:01:11.993Z</time></trkpt><trkpt lat="45.37011327038912" lon="10.548039537566723"><ele>125.19999999999999</ele><time>2026-04-04T14:01:14.993Z</time></trkpt><trkpt lat="45.37019777986401" lon="10.548071071144797"><ele>126.0</ele><time>2026-04-04T14:01:17.993Z</time></trkpt><trkpt lat="45.37029047430057" lon="10.548094140053086"><ele>126.0</ele><time>2026-04-04T14:01:20.993Z</time></trkpt><trkpt lat="45.370351863287276" lon="10.548126778656336"><ele>126.0</ele><time>2026-04-04T14:01:22.993Z</time></trkpt><trkpt lat="45.3706008887619" lon="10.54813979261554"><ele>126.0</ele><time>2026-04-04T14:01:30.994Z</time></trkpt><trkpt lat="45.37068485757534" lon="10.54815466256702"><ele>126.0</ele><time>2026-04-04T14:01:33.995Z</time></trkpt><trkpt lat="45.370757917925324" lon="10.548161143481542"><ele>126.19999999999999</ele><time>2026-04-04T14:01:35.995Z</time></trkpt><trkpt lat="45.370850125940215" lon="10.548183811176983"><ele>126.39999999999999</ele><time>2026-04-04T14:01:38.995Z</time></trkpt><trkpt lat="45.3709408484135" lon="10.5481889872987"><ele>126.6</ele><time>2026-04-04T14:01:41.995Z</time></trkpt><trkpt lat="45.37108284593665" lon="10.548199731611888"><ele>126.8</ele><time>2026-04-04T14:01:46.994Z</time></trkpt><trkpt lat="45.37117297506554" lon="10.548214676837594"><ele>127.0</ele><time>2026-04-04T14:01:49.994Z</time></trkpt><trkpt lat="45.37146558056219" lon="10.548219966182854"><ele>127.33333333333334</ele><time>2026-04-04T14:01:59.994Z</time></trkpt><trkpt lat="45.37163260483117" lon="10.548221123593702"><ele>127.66666666666666</ele><time>2026-04-04T14:02:05.994Z</time></trkpt><trkpt lat="45.37173627021598" lon="10.548234657399995"><ele>128.0</ele><time>2026-04-04T14:02:09.994Z</time></trkpt><trkpt lat="45.37199325800104" lon="10.548229460440162"><ele>127.99999999999999</ele><time>2026-04-04T14:02:18.994Z</time></trkpt><trkpt lat="45.372071771052276" lon="10.548279234286108"><ele>128.0</ele><time>2026-04-04T14:02:21.994Z</time></trkpt><trkpt lat="45.37214102199029" lon="10.548346612697589"><ele>128.0</ele><time>2026-04-04T14:02:25.994Z</time></trkpt><trkpt lat="45.37220001235348" lon="10.548394880269575"><ele>128.0</ele><time>2026-04-04T14:02:28.994Z</time></trkpt><trkpt lat="45.37225485560519" lon="10.548462477855146"><ele>127.99999999999999</ele><time>2026-04-04T14:02:31.994Z</time></trkpt><trkpt lat="45.372312480734685" lon="10.54853462498851"><ele>128.0</ele><time>2026-04-04T14:02:34.993Z</time></trkpt><trkpt lat="45.372380459579595" lon="10.548606010464223"><ele>128.85714285714286</ele><time>2026-04-04T14:02:38.993Z</time></trkpt><trkpt lat="45.372419792215254" lon="10.54868439441642"><ele>129.7142857142857</ele><time>2026-04-04T14:02:41.993Z</time></trkpt><trkpt lat="45.372447535389426" lon="10.548769183384483"><ele>130.57142857142856</ele><time>2026-04-04T14:02:45.993Z</time></trkpt><trkpt lat="45.37243922383909" lon="10.54887008133873"><ele>131.42857142857142</ele><time>2026-04-04T14:02:49.993Z</time></trkpt><trkpt lat="45.37241758424471" lon="10.548955201746422"><ele>132.28571428571428</ele><time>2026-04-04T14:02:53.993Z</time></trkpt><trkpt lat="45.372409160646725" lon="10.549071435853616"><ele>133.14285714285714</ele><time>2026-04-04T14:02:57.993Z</time></trkpt><trkpt lat="45.37243317063914" lon="10.549174919715686"><ele>134.0</ele><time>2026-04-04T14:03:00.993Z</time></trkpt><trkpt lat="45.37250068579072" lon="10.549215967215478"><ele>136.2</ele><time>2026-04-04T14:03:02.993Z</time></trkpt><trkpt lat="45.37256259487947" lon="10.54925992153392"><ele>138.4</ele><time>2026-04-04T14:03:05.993Z</time></trkpt><trkpt lat="45.3726215398951" lon="10.549320736348077"><ele>140.6</ele><time>2026-04-04T14:03:08.993Z</time></trkpt><trkpt lat="45.37269288814865" lon="10.549333509279567"><ele>142.8</ele><time>2026-04-04T14:03:11.993Z</time></trkpt><trkpt lat="45.3726590756868" lon="10.549469318121778"><ele>145.0</ele><time>2026-04-04T14:03:22.993Z</time></trkpt><trkpt lat="45.372792960520556" lon="10.549509646753174"><ele>145.0</ele><time>2026-04-04T14:03:40.994Z</time></trkpt><trkpt lat="45.37281114169974" lon="10.549396082548443"><ele>145.0</ele><time>2026-04-04T14:03:48.995Z</time></trkpt><trkpt lat="45.37287042304846" lon="10.549325900054207"><ele>145.0</ele><time>2026-04-04T14:03:54.994Z</time></trkpt><trkpt lat="45.37294027563135" lon="10.549281795033858"><ele>145.0</ele><time>2026-04-04T14:03:59.994Z</time></trkpt><trkpt lat="45.373002592862214" lon="10.549238421666676"><ele>145.0</ele><time>2026-04-04T14:04:03.994Z</time></trkpt><trkpt lat="45.37306028174183" lon="10.549200227979137"><ele>145.0</ele><time>2026-04-04T14:04:07.994Z</time></trkpt><trkpt lat="45.37311445576462" lon="10.549137632698006"><ele>145.0</ele><time>2026-04-04T14:04:10.994Z</time></trkpt><trkpt lat="45.37314007571451" lon="10.549017937950937"><ele>145.5</ele><time>2026-04-04T14:04:13.994Z</time></trkpt><trkpt lat="45.37316984199139" lon="10.548907787316379"><ele>146.0</ele><time>2026-04-04T14:04:16.994Z</time></trkpt><trkpt lat="45.373181604273455" lon="10.548819600522366"><ele>146.5</ele><time>2026-04-04T14:04:18.994Z</time></trkpt><trkpt lat="45.373210518917254" lon="10.548710477327548"><ele>147.0</ele><time>2026-04-04T14:04:21.994Z</time></trkpt><trkpt lat="45.373240938125036" lon="10.548586717603111"><ele>147.5</ele><time>2026-04-04T14:04:24.994Z</time></trkpt><trkpt lat="45.373256671185324" lon="10.548459542311674"><ele>148.0</ele><time>2026-04-04T14:04:27.994Z</time></trkpt><trkpt lat="45.37327595885671" lon="10.548344618437435"><ele>148.0</ele><time>2026-04-04T14:04:30.994Z</time></trkpt><trkpt lat="45.373287527513014" lon="10.548235746799632"><ele>148.0</ele><time>2026-04-04T14:04:33.994Z</time></trkpt><trkpt lat="45.373306807894096" lon="10.548136996626953"><ele>148.0</ele><time>2026-04-04T14:04:37.994Z</time></trkpt><trkpt lat="45.37332318678986" lon="10.548030166874044"><ele>148.0</ele><time>2026-04-04T14:04:40.994Z</time></trkpt><trkpt lat="45.37334135344598" lon="10.547922786926932"><ele>148.0</ele><time>2026-04-04T14:04:43.994Z</time></trkpt><trkpt lat="45.37336111579836" lon="10.547809413697042"><ele>148.0</ele><time>2026-04-04T14:04:46.994Z</time></trkpt><trkpt lat="45.37337804548107" lon="10.547713145939808"><ele>146.5</ele><time>2026-04-04T14:04:49.993Z</time></trkpt><trkpt lat="45.373374379836314" lon="10.54758648425499"><ele>145.0</ele><time>2026-04-04T14:04:52.993Z</time></trkpt><trkpt lat="45.37336191570551" lon="10.547471397406545"><ele>143.5</ele><time>2026-04-04T14:04:55.993Z</time></trkpt><trkpt lat="45.37338354950432" lon="10.54735597208785"><ele>142.0</ele><time>2026-04-04T14:04:58.993Z</time></trkpt><trkpt lat="45.37339618596975" lon="10.547265819162723"><ele>140.5</ele><time>2026-04-04T14:05:00.993Z</time></trkpt><trkpt lat="45.37344389073863" lon="10.547184854293908"><ele>139.0</ele><time>2026-04-04T14:05:02.993Z</time></trkpt><trkpt lat="45.373468392495894" lon="10.54707139553424"><ele>137.5</ele><time>2026-04-04T14:05:05.993Z</time></trkpt><trkpt lat="45.37351245053956" lon="10.546986347261145"><ele>136.0</ele><time>2026-04-04T14:05:08.993Z</time></trkpt><trkpt lat="45.37352606752815" lon="10.54685689279871"><ele>134.5</ele><time>2026-04-04T14:05:11.993Z</time></trkpt><trkpt lat="45.373498437953714" lon="10.546761368464932"><ele>133.0</ele><time>2026-04-04T14:05:13.993Z</time></trkpt><trkpt lat="45.373445639878405" lon="10.54668411137567"><ele>131.5</ele><time>2026-04-04T14:05:15.993Z</time></trkpt><trkpt lat="45.373404673099046" lon="10.546590834896381"><ele>130.0</ele><time>2026-04-04T14:05:17.993Z</time></trkpt><trkpt lat="45.373362409131694" lon="10.546496420849497"><ele>130.0</ele><time>2026-04-04T14:05:19.993Z</time></trkpt><trkpt lat="45.373305110434394" lon="10.546428183315141"><ele>130.0</ele><time>2026-04-04T14:05:21.993Z</time></trkpt><trkpt lat="45.37330274796698" lon="10.546321822935234"><ele>130.0</ele><time>2026-04-04T14:05:24.993Z</time></trkpt><trkpt lat="45.37337338129034" lon="10.546262269774"><ele>130.0</ele><time>2026-04-04T14:05:27.993Z</time></trkpt><trkpt lat="45.37342635691874" lon="10.54618797040619"><ele>130.0</ele><time>2026-04-04T14:05:30.993Z</time></trkpt><trkpt lat="45.373484945361874" lon="10.546096016945826"><ele>130.0</ele><time>2026-04-04T14:05:33.993Z</time></trkpt><trkpt lat="45.37355269150202" lon="10.546039649951801"><ele>129.5</ele><time>2026-04-04T14:05:36.993Z</time></trkpt><trkpt lat="45.37361899537893" lon="10.545954132810111"><ele>129.0</ele><time>2026-04-04T14:05:39.993Z</time></trkpt><trkpt lat="45.37369884168533" lon="10.54588490281551"><ele>128.5</ele><time>2026-04-04T14:05:42.995Z</time></trkpt><trkpt lat="45.373775772329694" lon="10.545815382459985"><ele>128.0</ele><time>2026-04-04T14:05:45.994Z</time></trkpt><trkpt lat="45.37385057987132" lon="10.545750582374952"><ele>127.50000000000001</ele><time>2026-04-04T14:05:48.995Z</time></trkpt><trkpt lat="45.37387842615806" lon="10.545633751489857"><ele>127.0</ele><time>2026-04-04T14:05:51.995Z</time></trkpt><trkpt lat="45.373878862982345" lon="10.545544121042477"><ele>128.0</ele><time>2026-04-04T14:05:53.995Z</time></trkpt><trkpt lat="45.373874900474796" lon="10.545417130637595"><ele>129.0</ele><time>2026-04-04T14:05:56.995Z</time></trkpt><trkpt lat="45.37391930266564" lon="10.545352912879055"><ele>130.0</ele><time>2026-04-04T14:05:58.995Z</time></trkpt><trkpt lat="45.373961500287486" lon="10.54526487822948"><ele>131.0</ele><time>2026-04-04T14:06:01.995Z</time></trkpt><trkpt lat="45.374017787793385" lon="10.545191879616706"><ele>132.0</ele><time>2026-04-04T14:06:04.994Z</time></trkpt><trkpt lat="45.37407560923929" lon="10.545114599013461"><ele>133.0</ele><time>2026-04-04T14:06:07.994Z</time></trkpt><trkpt lat="45.374129276326826" lon="10.545039777085126"><ele>133.0</ele><time>2026-04-04T14:06:10.994Z</time></trkpt><trkpt lat="45.37418599783056" lon="10.544959922761231"><ele>133.0</ele><time>2026-04-04T14:06:13.994Z</time></trkpt><trkpt lat="45.37424305023763" lon="10.544887955775538"><ele>133.0</ele><time>2026-04-04T14:06:16.994Z</time></trkpt><trkpt lat="45.3743053679196" lon="10.544826161301772"><ele>133.0</ele><time>2026-04-04T14:06:19.994Z</time></trkpt><trkpt lat="45.37437875983439" lon="10.544758770088777"><ele>133.0</ele><time>2026-04-04T14:06:22.994Z</time></trkpt><trkpt lat="45.37444892845202" lon="10.544709012540425"><ele>133.0</ele><time>2026-04-04T14:06:25.994Z</time></trkpt><trkpt lat="45.37451302401566" lon="10.544637444220779"><ele>132.5</ele><time>2026-04-04T14:06:28.994Z</time></trkpt><trkpt lat="45.374565319579936" lon="10.544543129469659"><ele>132.0</ele><time>2026-04-04T14:06:31.994Z</time></trkpt><trkpt lat="45.37463050756108" lon="10.544478465757132"><ele>131.5</ele><time>2026-04-04T14:06:34.994Z</time></trkpt><trkpt lat="45.374699958495356" lon="10.544399149898323"><ele>131.0</ele><time>2026-04-04T14:06:37.994Z</time></trkpt><trkpt lat="45.37476396122231" lon="10.544318485997483"><ele>130.5</ele><time>2026-04-04T14:06:40.994Z</time></trkpt><trkpt lat="45.37482757060839" lon="10.5442433903889"><ele>130.0</ele><time>2026-04-04T14:06:43.994Z</time></trkpt><trkpt lat="45.37489834265206" lon="10.544163598842207"><ele>130.0</ele><time>2026-04-04T14:06:46.994Z</time></trkpt><trkpt lat="45.37497415041646" lon="10.544088353143616"><ele>130.0</ele><time>2026-04-04T14:06:49.994Z</time></trkpt><trkpt lat="45.37505180993554" lon="10.544011963894002"><ele>130.0</ele><time>2026-04-04T14:06:52.994Z</time></trkpt><trkpt lat="45.375118006235994" lon="10.543942663246096"><ele>130.0</ele><time>2026-04-04T14:06:55.994Z</time></trkpt><trkpt lat="45.3751927773784" lon="10.543873169152851"><ele>130.0</ele><time>2026-04-04T14:06:58.994Z</time></trkpt><trkpt lat="45.375251058314255" lon="10.543836729220935"><ele>130.0</ele><time>2026-04-04T14:07:00.994Z</time></trkpt><trkpt lat="45.37533122153683" lon="10.543787891083037"><ele>130.0</ele><time>2026-04-04T14:07:03.993Z</time></trkpt><trkpt lat="45.375457382099256" lon="10.543819638120588"><ele>130.0</ele><time>2026-04-04T14:07:08.993Z</time></trkpt><trkpt lat="45.37552941650335" lon="10.5438602660154"><ele>130.0</ele><time>2026-04-04T14:07:12.993Z</time></trkpt><trkpt lat="45.37558982181039" lon="10.543939625631127"><ele>130.0</ele><time>2026-04-04T14:07:16.993Z</time></trkpt><trkpt lat="45.37564530332311" lon="10.544022959739555"><ele>130.0</ele><time>2026-04-04T14:07:20.993Z</time></trkpt><trkpt lat="45.37567800660685" lon="10.544131115130389"><ele>130.00000000000003</ele><time>2026-04-04T14:07:24.993Z</time></trkpt><trkpt lat="45.37564591324519" lon="10.544217657932705"><ele>130.0</ele><time>2026-04-04T14:07:29.993Z</time></trkpt><trkpt lat="45.375587587935556" lon="10.544260933497071"><ele>130.0</ele><time>2026-04-04T14:07:37.993Z</time></trkpt><trkpt lat="45.37556443113476" lon="10.544347261660857"><ele>130.0</ele><time>2026-04-04T14:07:43.993Z</time></trkpt><trkpt lat="45.37551384262665" lon="10.544410630208587"><ele>130.0</ele><time>2026-04-04T14:07:53.995Z</time></trkpt><trkpt lat="45.37545235225982" lon="10.54448864613751"><ele>130.00000000000003</ele><time>2026-04-04T14:08:03.995Z</time></trkpt><trkpt lat="45.37540277787418" lon="10.544565820932762"><ele>130.0</ele><time>2026-04-04T14:08:11.995Z</time></trkpt><trkpt lat="45.375358248493775" lon="10.544630511439257"><ele>132.42857142857144</ele><time>2026-04-04T14:08:19.995Z</time></trkpt><trkpt lat="45.37531078241906" lon="10.544695719726928"><ele>134.85714285714286</ele><time>2026-04-04T14:08:27.994Z</time></trkpt><trkpt lat="45.37528508156985" lon="10.544852337116078"><ele>137.28571428571428</ele><time>2026-04-04T14:08:40.994Z</time></trkpt><trkpt lat="45.37523139679048" lon="10.544900433379249"><ele>139.71428571428572</ele><time>2026-04-04T14:08:54.994Z</time></trkpt><trkpt lat="45.37520849975605" lon="10.544994625053613"><ele>142.14285714285714</ele><time>2026-04-04T14:09:02.994Z</time></trkpt><trkpt lat="45.37517180733417" lon="10.545068508665294"><ele>144.57142857142858</ele><time>2026-04-04T14:09:09.994Z</time></trkpt><trkpt lat="45.37511206690137" lon="10.545121012166998"><ele>147.0</ele><time>2026-04-04T14:09:15.994Z</time></trkpt><trkpt lat="45.37508569553766" lon="10.545203601427385"><ele>147.0</ele><time>2026-04-04T14:09:21.993Z</time></trkpt><trkpt lat="45.375054144948095" lon="10.545281544039442"><ele>147.0</ele><time>2026-04-04T14:09:29.993Z</time></trkpt><trkpt lat="45.37501485918904" lon="10.545361761151089"><ele>147.0</ele><time>2026-04-04T14:09:34.993Z</time></trkpt><trkpt lat="45.374979771324284" lon="10.545471476178832"><ele>147.0</ele><time>2026-04-04T14:09:38.993Z</time></trkpt><trkpt lat="45.37493099926759" lon="10.545573913960075"><ele>147.0</ele><time>2026-04-04T14:09:41.993Z</time></trkpt><trkpt lat="45.374896776804114" lon="10.545663130232764"><ele>147.0</ele><time>2026-04-04T14:09:44.993Z</time></trkpt><trkpt lat="45.37489404934043" lon="10.545788956905062"><ele>148.28571428571428</ele><time>2026-04-04T14:09:47.993Z</time></trkpt><trkpt lat="45.37490706814103" lon="10.545887695549359"><ele>149.57142857142856</ele><time>2026-04-04T14:09:50.993Z</time></trkpt><trkpt lat="45.37491648094519" lon="10.54598925933556"><ele>150.85714285714286</ele><time>2026-04-04T14:09:54.994Z</time></trkpt><trkpt lat="45.37492088996103" lon="10.546089476851161"><ele>152.14285714285714</ele><time>2026-04-04T14:09:57.994Z</time></trkpt><trkpt lat="45.37492126120877" lon="10.546187632316256"><ele>153.42857142857142</ele><time>2026-04-04T14:10:00.994Z</time></trkpt><trkpt lat="45.374939341438235" lon="10.54628866217144"><ele>154.71428571428572</ele><time>2026-04-04T14:10:03.994Z</time></trkpt><trkpt lat="45.37492356086295" lon="10.546392854294094"><ele>156.0</ele><time>2026-04-04T14:10:07.994Z</time></trkpt><trkpt lat="45.374906209734434" lon="10.546498987531093"><ele>156.2857142857143</ele><time>2026-04-04T14:10:10.994Z</time></trkpt><trkpt lat="45.374908855191656" lon="10.546609011858529"><ele>156.57142857142856</ele><time>2026-04-04T14:10:13.994Z</time></trkpt><trkpt lat="45.374902467109536" lon="10.546716760549707"><ele>156.85714285714286</ele><time>2026-04-04T14:10:16.994Z</time></trkpt><trkpt lat="45.374905254483586" lon="10.546828049826772"><ele>157.14285714285717</ele><time>2026-04-04T14:10:19.993Z</time></trkpt><trkpt lat="45.3748725883411" lon="10.546905548877962"><ele>157.42857142857144</ele><time>2026-04-04T14:10:26.993Z</time></trkpt><trkpt lat="45.3748319922323" lon="10.546823886821416"><ele>157.71428571428572</ele><time>2026-04-04T14:10:31.993Z</time></trkpt><trkpt lat="45.37476063905903" lon="10.546821865423567"><ele>158.0</ele><time>2026-04-04T14:10:34.993Z</time></trkpt><trkpt lat="45.37468162857567" lon="10.54688454429138"><ele>155.66666666666666</ele><time>2026-04-04T14:10:37.993Z</time></trkpt><trkpt lat="45.37459788499991" lon="10.546913218740524"><ele>153.33333333333331</ele><time>2026-04-04T14:10:40.993Z</time></trkpt><trkpt lat="45.37453513719249" lon="10.546892517616948"><ele>151.0</ele><time>2026-04-04T14:10:43.993Z</time></trkpt><trkpt lat="45.37447876866969" lon="10.546788980832144"><ele>148.66666666666666</ele><time>2026-04-04T14:10:46.993Z</time></trkpt><trkpt lat="45.37442632177787" lon="10.54673373612721"><ele>146.33333333333334</ele><time>2026-04-04T14:10:48.993Z</time></trkpt><trkpt lat="45.37438159517245" lon="10.54664195638731"><ele>144.0</ele><time>2026-04-04T14:10:51.993Z</time></trkpt><trkpt lat="45.3743755257168" lon="10.546525089105717"><ele>144.0</ele><time>2026-04-04T14:10:55.993Z</time></trkpt><trkpt lat="45.374382341011376" lon="10.546434196054204"><ele>144.0</ele><time>2026-04-04T14:10:58.993Z</time></trkpt><trkpt lat="45.374418266725726" lon="10.546333806966471"><ele>144.0</ele><time>2026-04-04T14:11:02.993Z</time></trkpt><trkpt lat="45.37445154673558" lon="10.546223491100594"><ele>144.0</ele><time>2026-04-04T14:11:06.993Z</time></trkpt><trkpt lat="45.374457832577406" lon="10.546120586186404"><ele>144.0</ele><time>2026-04-04T14:11:09.993Z</time></trkpt><trkpt lat="45.37445789467834" lon="10.546005889397598"><ele>144.0</ele><time>2026-04-04T14:11:12.993Z</time></trkpt><trkpt lat="45.374443312251145" lon="10.545881776964297"><ele>143.66666666666666</ele><time>2026-04-04T14:11:15.992Z</time></trkpt><trkpt lat="45.37441780549312" lon="10.545765015182743"><ele>143.33333333333334</ele><time>2026-04-04T14:11:18.992Z</time></trkpt><trkpt lat="45.37438581510494" lon="10.545681112471943"><ele>143.0</ele><time>2026-04-04T14:11:20.992Z</time></trkpt><trkpt lat="45.37439913264265" lon="10.5455691579991"><ele>142.66666666666669</ele><time>2026-04-04T14:11:23.992Z</time></trkpt><trkpt lat="45.37445360054398" lon="10.545486637213255"><ele>142.33333333333334</ele><time>2026-04-04T14:11:26.992Z</time></trkpt><trkpt lat="45.374487774612895" lon="10.545395007610292"><ele>142.0</ele><time>2026-04-04T14:11:29.992Z</time></trkpt><trkpt lat="45.37453970388072" lon="10.545323988732042"><ele>142.83333333333334</ele><time>2026-04-04T14:11:32.992Z</time></trkpt><trkpt lat="45.374589929252664" lon="10.545251192684155"><ele>143.66666666666669</ele><time>2026-04-04T14:11:35.992Z</time></trkpt><trkpt lat="45.374632340310086" lon="10.545149124285622"><ele>144.5</ele><time>2026-04-04T14:11:38.992Z</time></trkpt><trkpt lat="45.374654435104475" lon="10.545059019469328"><ele>145.33333333333334</ele><time>2026-04-04T14:11:40.992Z</time></trkpt><trkpt lat="45.37468373551139" lon="10.544958909038623"><ele>146.16666666666666</ele><time>2026-04-04T14:11:43.992Z</time></trkpt><trkpt lat="45.37472605149354" lon="10.544864547124837"><ele>147.0</ele><time>2026-04-04T14:11:46.992Z</time></trkpt><trkpt lat="45.374784645924265" lon="10.544761271593876"><ele>147.0</ele><time>2026-04-04T14:11:50.992Z</time></trkpt><trkpt lat="45.37483315383356" lon="10.544698750835053"><ele>147.0</ele><time>2026-04-04T14:11:52.992Z</time></trkpt><trkpt lat="45.37488056713953" lon="10.5445875931811"><ele>147.0</ele><time>2026-04-04T14:11:55.992Z</time></trkpt><trkpt lat="45.374916637067216" lon="10.544470530115467"><ele>147.0</ele><time>2026-04-04T14:11:58.992Z</time></trkpt><trkpt lat="45.37495194594978" lon="10.544351015491651"><ele>147.0</ele><time>2026-04-04T14:12:01.994Z</time></trkpt><trkpt lat="45.37498629990112" lon="10.54427156555528"><ele>147.0</ele><time>2026-04-04T14:12:03.994Z</time></trkpt><trkpt lat="45.37501909665785" lon="10.544192910676696"><ele>143.6</ele><time>2026-04-04T14:12:05.994Z</time></trkpt><trkpt lat="45.37507201282572" lon="10.544084723003074"><ele>140.2</ele><time>2026-04-04T14:12:08.994Z</time></trkpt><trkpt lat="45.37514355579981" lon="10.54402245229997"><ele>136.8</ele><time>2026-04-04T14:12:11.994Z</time></trkpt><trkpt lat="45.37522341535041" lon="10.543976655121178"><ele>133.4</ele><time>2026-04-04T14:12:14.994Z</time></trkpt><trkpt lat="45.375299643478684" lon="10.54392642209349"><ele>130.0</ele><time>2026-04-04T14:12:17.994Z</time></trkpt><trkpt lat="45.37547119277408" lon="10.54392246539729"><ele>130.0</ele><time>2026-04-04T14:12:24.994Z</time></trkpt><trkpt lat="45.37556264648459" lon="10.543940408153052"><ele>130.0</ele><time>2026-04-04T14:12:29.994Z</time></trkpt><trkpt lat="45.37562218874509" lon="10.543987897336546"><ele>130.0</ele><time>2026-04-04T14:12:33.993Z</time></trkpt><trkpt lat="45.375679098213" lon="10.544073342057127"><ele>130.0</ele><time>2026-04-04T14:12:37.993Z</time></trkpt><trkpt lat="45.37572208520857" lon="10.544155264918162"><ele>130.0</ele><time>2026-04-04T14:12:40.993Z</time></trkpt><trkpt lat="45.37574842540366" lon="10.544263989223325"><ele>130.0</ele><time>2026-04-04T14:12:44.993Z</time></trkpt><trkpt lat="45.375766670158676" lon="10.54437595241597"><ele>130.0</ele><time>2026-04-04T14:12:47.993Z</time></trkpt><trkpt lat="45.375776341874506" lon="10.544489583987563"><ele>130.0</ele><time>2026-04-04T14:12:50.993Z</time></trkpt><trkpt lat="45.37578059164449" lon="10.544603933212114"><ele>130.0</ele><time>2026-04-04T14:12:53.993Z</time></trkpt><trkpt lat="45.375789522341" lon="10.544711451560604"><ele>130.0</ele><time>2026-04-04T14:12:56.993Z</time></trkpt><trkpt lat="45.37576393428145" lon="10.544828968066795"><ele>130.0</ele><time>2026-04-04T14:12:59.993Z</time></trkpt><trkpt lat="45.37576390615681" lon="10.54495504224032"><ele>130.0</ele><time>2026-04-04T14:13:02.993Z</time></trkpt><trkpt lat="45.375754304141545" lon="10.545049688062992"><ele>131.0</ele><time>2026-04-04T14:13:05.993Z</time></trkpt><trkpt lat="45.375751106842465" lon="10.545152187870453"><ele>132.0</ele><time>2026-04-04T14:13:08.993Z</time></trkpt><trkpt lat="45.375730912483284" lon="10.545267324422325"><ele>133.0</ele><time>2026-04-04T14:13:11.993Z</time></trkpt><trkpt lat="45.37574012834393" lon="10.545374451930488"><ele>134.0</ele><time>2026-04-04T14:13:14.993Z</time></trkpt><trkpt lat="45.37572368215879" lon="10.545497483013174"><ele>135.0</ele><time>2026-04-04T14:13:17.993Z</time></trkpt><trkpt lat="45.375722510928874" lon="10.545609496906891"><ele>136.0</ele><time>2026-04-04T14:13:20.993Z</time></trkpt><trkpt lat="45.3757308252935" lon="10.545724139670645"><ele>136.66666666666669</ele><time>2026-04-04T14:13:23.993Z</time></trkpt><trkpt lat="45.37572093517697" lon="10.545837533241462"><ele>137.33333333333334</ele><time>2026-04-04T14:13:26.993Z</time></trkpt><trkpt lat="45.37571072864206" lon="10.54595063123605"><ele>138.0</ele><time>2026-04-04T14:13:29.992Z</time></trkpt><trkpt lat="45.37571066831968" lon="10.546081564357303"><ele>138.66666666666666</ele><time>2026-04-04T14:13:32.992Z</time></trkpt><trkpt lat="45.37572787735207" lon="10.546200314535042"><ele>139.33333333333331</ele><time>2026-04-04T14:13:35.992Z</time></trkpt><trkpt lat="45.375742503352264" lon="10.546311253091917"><ele>140.0</ele><time>2026-04-04T14:13:38.992Z</time></trkpt><trkpt lat="45.37577004103173" lon="10.54643716253056"><ele>140.42857142857142</ele><time>2026-04-04T14:13:41.992Z</time></trkpt><trkpt lat="45.375792174846296" lon="10.546533126337136"><ele>140.85714285714286</ele><time>2026-04-04T14:13:44.992Z</time></trkpt><trkpt lat="45.37581436749279" lon="10.546629957061713"><ele>141.28571428571428</ele><time>2026-04-04T14:13:47.992Z</time></trkpt><trkpt lat="45.37579340301224" lon="10.54671793288718"><ele>141.71428571428572</ele><time>2026-04-04T14:13:51.992Z</time></trkpt><trkpt lat="45.375713353656536" lon="10.546732970657079"><ele>142.14285714285714</ele><time>2026-04-04T14:13:55.992Z</time></trkpt><trkpt lat="45.37564687575019" lon="10.546774598442648"><ele>142.57142857142856</ele><time>2026-04-04T14:13:58.992Z</time></trkpt><trkpt lat="45.37557536210057" lon="10.546825584440747"><ele>143.0</ele><time>2026-04-04T14:14:02.992Z</time></trkpt><trkpt lat="45.37551432817458" lon="10.546788011267159"><ele>145.14285714285714</ele><time>2026-04-04T14:14:07.994Z</time></trkpt><trkpt lat="45.375491816919705" lon="10.546703189656697"><ele>147.28571428571428</ele><time>2026-04-04T14:14:12.994Z</time></trkpt><trkpt lat="45.375478236227906" lon="10.546610921690185"><ele>149.42857142857144</ele><time>2026-04-04T14:14:17.994Z</time></trkpt><trkpt lat="45.37545490750083" lon="10.546512535352647"><ele>151.57142857142856</ele><time>2026-04-04T14:14:22.994Z</time></trkpt><trkpt lat="45.375388202023935" lon="10.54652434232416"><ele>153.71428571428572</ele><time>2026-04-04T14:14:26.994Z</time></trkpt><trkpt lat="45.37531984860388" lon="10.546572834863042"><ele>155.85714285714286</ele><time>2026-04-04T14:14:31.994Z</time></trkpt><trkpt lat="45.375255301848576" lon="10.546618608021438"><ele>158.0</ele><time>2026-04-04T14:14:35.994Z</time></trkpt><trkpt lat="45.37518577850978" lon="10.546624601502968"><ele>158.00000000000003</ele><time>2026-04-04T14:14:39.994Z</time></trkpt><trkpt lat="45.37511761678331" lon="10.546658401382013"><ele>158.0</ele><time>2026-04-04T14:14:43.994Z</time></trkpt><trkpt lat="45.37505224192342" lon="10.546683085243934"><ele>158.0</ele><time>2026-04-04T14:14:47.994Z</time></trkpt><trkpt lat="45.37498931189508" lon="10.54666993067755"><ele>158.0</ele><time>2026-04-04T14:14:52.993Z</time></trkpt><trkpt lat="45.37493696026083" lon="10.546597774094035"><ele>158.0</ele><time>2026-04-04T14:14:59.993Z</time></trkpt><trkpt lat="45.37487297139539" lon="10.546595207570698"><ele>158.00000000000003</ele><time>2026-04-04T14:15:04.993Z</time></trkpt><trkpt lat="45.374891778038226" lon="10.546688708742057"><ele>158.0</ele><time>2026-04-04T14:15:09.993Z</time></trkpt><trkpt lat="45.37490293204542" lon="10.546794929993023"><ele>158.00000000000003</ele><time>2026-04-04T14:15:14.993Z</time></trkpt><trkpt lat="45.3749090816398" lon="10.546904510520122"><ele>158.0</ele><time>2026-04-04T14:15:18.993Z</time></trkpt><trkpt lat="45.37491244508413" lon="10.546999793026233"><ele>158.0</ele><time>2026-04-04T14:15:22.993Z</time></trkpt><trkpt lat="45.37486301918999" lon="10.546940226514572"><ele>158.0</ele><time>2026-04-04T14:15:29.993Z</time></trkpt><trkpt lat="45.37479828272271" lon="10.54688460555284"><ele>158.0</ele><time>2026-04-04T14:15:35.993Z</time></trkpt><trkpt lat="45.374725533665405" lon="10.546902558795141"><ele>158.00000000000003</ele><time>2026-04-04T14:15:39.993Z</time></trkpt><trkpt lat="45.374646024152526" lon="10.546910311122144"><ele>158.0</ele><time>2026-04-04T14:15:42.993Z</time></trkpt><trkpt lat="45.37459217659961" lon="10.546842973815437"><ele>155.66666666666666</ele><time>2026-04-04T14:15:45.993Z</time></trkpt><trkpt lat="45.37453238041652" lon="10.546748074883164"><ele>153.33333333333331</ele><time>2026-04-04T14:15:48.993Z</time></trkpt><trkpt lat="45.374452227949234" lon="10.54668974586426"><ele>151.0</ele><time>2026-04-04T14:15:51.992Z</time></trkpt><trkpt lat="45.37442477968103" lon="10.54660880232928"><ele>148.66666666666666</ele><time>2026-04-04T14:15:54.992Z</time></trkpt><trkpt lat="45.374409688935046" lon="10.546520867915648"><ele>146.33333333333334</ele><time>2026-04-04T14:15:57.992Z</time></trkpt><trkpt lat="45.37442226383612" lon="10.546415855842927"><ele>144.0</ele><time>2026-04-04T14:16:01.992Z</time></trkpt><trkpt lat="45.374441111932846" lon="10.54631435521141"><ele>144.00000000000003</ele><time>2026-04-04T14:16:05.992Z</time></trkpt><trkpt lat="45.374447357622806" lon="10.54621361047269"><ele>144.0</ele><time>2026-04-04T14:16:08.992Z</time></trkpt><trkpt lat="45.374471467854804" lon="10.546126999791138"><ele>144.0</ele><time>2026-04-04T14:16:11.995Z</time></trkpt><trkpt lat="45.374475975884145" lon="10.546015030198213"><ele>144.0</ele><time>2026-04-04T14:16:14.994Z</time></trkpt><trkpt lat="45.37445787514198" lon="10.545913611240792"><ele>144.0</ele><time>2026-04-04T14:16:16.994Z</time></trkpt><trkpt lat="45.37443702311341" lon="10.545798994460837"><ele>144.00000000000003</ele><time>2026-04-04T14:16:19.994Z</time></trkpt><trkpt lat="45.37441906181633" lon="10.545707288921774"><ele>144.0</ele><time>2026-04-04T14:16:21.995Z</time></trkpt><trkpt lat="45.37440078737418" lon="10.545604788973941"><ele>143.66666666666666</ele><time>2026-04-04T14:16:23.994Z</time></trkpt><trkpt lat="45.37442445410276" lon="10.545506945170532"><ele>143.33333333333334</ele><time>2026-04-04T14:16:26.994Z</time></trkpt><trkpt lat="45.37447950420621" lon="10.545431305149119"><ele>143.0</ele><time>2026-04-04T14:16:29.994Z</time></trkpt><trkpt lat="45.37453180256984" lon="10.54534869517001"><ele>142.66666666666669</ele><time>2026-04-04T14:16:32.994Z</time></trkpt><trkpt lat="45.37458375496704" lon="10.5452697511772"><ele>142.33333333333334</ele><time>2026-04-04T14:16:35.994Z</time></trkpt><trkpt lat="45.37462518773731" lon="10.545174056593861"><ele>142.0</ele><time>2026-04-04T14:16:38.994Z</time></trkpt><trkpt lat="45.37465865598203" lon="10.545089539199392"><ele>142.83333333333334</ele><time>2026-04-04T14:16:41.994Z</time></trkpt><trkpt lat="45.37469224587093" lon="10.54499064101762"><ele>143.66666666666669</ele><time>2026-04-04T14:16:44.994Z</time></trkpt><trkpt lat="45.37471751258174" lon="10.544881695616048"><ele>144.5</ele><time>2026-04-04T14:16:47.994Z</time></trkpt><trkpt lat="45.3747640458625" lon="10.544780787294084"><ele>145.33333333333334</ele><time>2026-04-04T14:16:51.994Z</time></trkpt><trkpt lat="45.37481263535937" lon="10.544709103646237"><ele>146.16666666666666</ele><time>2026-04-04T14:16:54.994Z</time></trkpt><trkpt lat="45.37487005466309" lon="10.544626482981002"><ele>147.0</ele><time>2026-04-04T14:16:57.994Z</time></trkpt><trkpt lat="45.37493235099082" lon="10.544536530750172"><ele>144.16666666666666</ele><time>2026-04-04T14:17:00.994Z</time></trkpt><trkpt lat="45.37495979872388" lon="10.54443333144017"><ele>141.33333333333334</ele><time>2026-04-04T14:17:02.994Z</time></trkpt><trkpt lat="45.37500638451403" lon="10.544315160969676"><ele>138.5</ele><time>2026-04-04T14:17:05.993Z</time></trkpt><trkpt lat="45.375036874372256" lon="10.544222344560108"><ele>135.66666666666669</ele><time>2026-04-04T14:17:07.993Z</time></trkpt><trkpt lat="45.37510842106908" lon="10.544137457423371"><ele>132.83333333333334</ele><time>2026-04-04T14:17:10.993Z</time></trkpt><trkpt lat="45.375192955310254" lon="10.544084283869491"><ele>130.0</ele><time>2026-04-04T14:17:13.993Z</time></trkpt><trkpt lat="45.37524907955166" lon="10.544039845068307"><ele>130.0</ele><time>2026-04-04T14:17:15.993Z</time></trkpt><trkpt lat="45.375304775780656" lon="10.543937370919505"><ele>130.0</ele><time>2026-04-04T14:17:18.993Z</time></trkpt><trkpt lat="45.37530983806554" lon="10.54383456885574"><ele>130.0</ele><time>2026-04-04T14:17:20.993Z</time></trkpt><trkpt lat="45.37526015670506" lon="10.54371489783971"><ele>130.0</ele><time>2026-04-04T14:17:22.993Z</time></trkpt><trkpt lat="45.37521731235664" lon="10.543597071846436"><ele>130.0</ele><time>2026-04-04T14:17:24.993Z</time></trkpt><trkpt lat="45.375153743279725" lon="10.543534822309248"><ele>130.0</ele><time>2026-04-04T14:17:27.993Z</time></trkpt><trkpt lat="45.3750711349247" lon="10.543522549583404"><ele>129.66666666666669</ele><time>2026-04-04T14:17:30.993Z</time></trkpt><trkpt lat="45.3750059361119" lon="10.54351033498726"><ele>129.33333333333334</ele><time>2026-04-04T14:17:33.993Z</time></trkpt><trkpt lat="45.37493387332238" lon="10.543492259160873"><ele>129.0</ele><time>2026-04-04T14:17:36.993Z</time></trkpt><trkpt lat="45.37484904724545" lon="10.543464829447426"><ele>128.66666666666666</ele><time>2026-04-04T14:17:39.993Z</time></trkpt><trkpt lat="45.37477040089541" lon="10.543454915194122"><ele>128.33333333333331</ele><time>2026-04-04T14:17:42.993Z</time></trkpt><trkpt lat="45.37468539792257" lon="10.543422106678987"><ele>128.0</ele><time>2026-04-04T14:17:45.993Z</time></trkpt><trkpt lat="45.37459984064298" lon="10.54338068168815"><ele>128.0</ele><time>2026-04-04T14:17:48.993Z</time></trkpt><trkpt lat="45.374523231461126" lon="10.543358468323055"><ele>127.99999999999999</ele><time>2026-04-04T14:17:51.993Z</time></trkpt><trkpt lat="45.3744545736285" lon="10.543297512134048"><ele>128.0</ele><time>2026-04-04T14:17:54.993Z</time></trkpt><trkpt lat="45.37440359277105" lon="10.543214554569886"><ele>128.0</ele><time>2026-04-04T14:17:57.993Z</time></trkpt><trkpt lat="45.37439917566893" lon="10.543110954779157"><ele>127.99999999999999</ele><time>2026-04-04T14:18:00.993Z</time></trkpt><trkpt lat="45.374397581759766" lon="10.5430114523139"><ele>128.0</ele><time>2026-04-04T14:18:03.992Z</time></trkpt><trkpt lat="45.374422924614635" lon="10.542928982656228"><ele>128.0</ele><time>2026-04-04T14:18:06.992Z</time></trkpt><trkpt lat="45.3744618575109" lon="10.542853816045584"><ele>128.5</ele><time>2026-04-04T14:18:09.992Z</time></trkpt><trkpt lat="45.37452464381439" lon="10.542796224340707"><ele>129.0</ele><time>2026-04-04T14:18:13.992Z</time></trkpt><trkpt lat="45.374600469411185" lon="10.5427785712195"><ele>129.5</ele><time>2026-04-04T14:18:17.994Z</time></trkpt><trkpt lat="45.3746699514033" lon="10.54273379729876"><ele>130.0</ele><time>2026-04-04T14:18:20.994Z</time></trkpt><trkpt lat="45.37472958836986" lon="10.542683272604233"><ele>130.5</ele><time>2026-04-04T14:18:23.995Z</time></trkpt><trkpt lat="45.37480576988779" lon="10.542635590163204"><ele>131.0</ele><time>2026-04-04T14:18:26.995Z</time></trkpt><trkpt lat="45.374872046192124" lon="10.542592331334612"><ele>131.0</ele><time>2026-04-04T14:18:29.994Z</time></trkpt><trkpt lat="45.37492571178274" lon="10.542512072950732"><ele>131.0</ele><time>2026-04-04T14:18:32.994Z</time></trkpt><trkpt lat="45.374956631840014" lon="10.542411264155518"><ele>131.0</ele><time>2026-04-04T14:18:35.994Z</time></trkpt><trkpt lat="45.37500625699559" lon="10.542351822333508"><ele>131.0</ele><time>2026-04-04T14:18:38.994Z</time></trkpt><trkpt lat="45.37507382651469" lon="10.5422934112318"><ele>131.0</ele><time>2026-04-04T14:18:42.994Z</time></trkpt><trkpt lat="45.37510376280238" lon="10.542186013413977"><ele>131.0</ele><time>2026-04-04T14:18:45.994Z</time></trkpt><trkpt lat="45.375138290109966" lon="10.542075764185975"><ele>132.5</ele><time>2026-04-04T14:18:48.994Z</time></trkpt><trkpt lat="45.37517255624272" lon="10.541962151757252"><ele>134.0</ele><time>2026-04-04T14:18:51.994Z</time></trkpt><trkpt lat="45.37521309164546" lon="10.541858216277568"><ele>135.5</ele><time>2026-04-04T14:18:54.994Z</time></trkpt><trkpt lat="45.37524131412736" lon="10.541762561444198"><ele>137.0</ele><time>2026-04-04T14:18:57.994Z</time></trkpt><trkpt lat="45.37527445035573" lon="10.54164831245468"><ele>138.5</ele><time>2026-04-04T14:19:00.994Z</time></trkpt><trkpt lat="45.37535078591857" lon="10.541596027289813"><ele>140.0</ele><time>2026-04-04T14:19:03.994Z</time></trkpt><trkpt lat="45.37542160807447" lon="10.541547098246815"><ele>140.0</ele><time>2026-04-04T14:19:06.994Z</time></trkpt><trkpt lat="45.37548181712395" lon="10.541513367006706"><ele>140.0</ele><time>2026-04-04T14:19:09.994Z</time></trkpt><trkpt lat="45.37553923154759" lon="10.541458340411074"><ele>140.0</ele><time>2026-04-04T14:19:13.994Z</time></trkpt><trkpt lat="45.375606691084336" lon="10.541426602871262"><ele>140.0</ele><time>2026-04-04T14:19:16.994Z</time></trkpt><trkpt lat="45.37567572392553" lon="10.541390701403147"><ele>140.0</ele><time>2026-04-04T14:19:19.994Z</time></trkpt><trkpt lat="45.37575083069729" lon="10.5413532693101"><ele>140.0</ele><time>2026-04-04T14:19:24.994Z</time></trkpt><trkpt lat="45.37581057030387" lon="10.541315037741064"><ele>140.0</ele><time>2026-04-04T14:19:28.994Z</time></trkpt><trkpt lat="45.37588129891525" lon="10.541275587146563"><ele>138.83333333333331</ele><time>2026-04-04T14:19:31.993Z</time></trkpt><trkpt lat="45.375962566571424" lon="10.54125291782776"><ele>137.66666666666666</ele><time>2026-04-04T14:19:34.993Z</time></trkpt><trkpt lat="45.37603352029209" lon="10.54123836592209"><ele>136.5</ele><time>2026-04-04T14:19:37.993Z</time></trkpt><trkpt lat="45.376091301242205" lon="10.541191964364982"><ele>135.33333333333334</ele><time>2026-04-04T14:19:39.993Z</time></trkpt><trkpt lat="45.37616470645686" lon="10.54116592623425"><ele>134.16666666666669</ele><time>2026-04-04T14:19:42.993Z</time></trkpt><trkpt lat="45.37625252809039" lon="10.541148187921051"><ele>133.0</ele><time>2026-04-04T14:19:45.993Z</time></trkpt><trkpt lat="45.376450725469915" lon="10.541138111358771"><ele>135.5</ele><time>2026-04-04T14:19:53.993Z</time></trkpt><trkpt lat="45.37652617078997" lon="10.541100328526484"><ele>138.0</ele><time>2026-04-04T14:19:56.993Z</time></trkpt><trkpt lat="45.37666066462792" lon="10.541046725936502"><ele>140.5</ele><time>2026-04-04T14:20:02.993Z</time></trkpt><trkpt lat="45.37672782945358" lon="10.54099143966246"><ele>143.0</ele><time>2026-04-04T14:20:05.993Z</time></trkpt><trkpt lat="45.37679445752769" lon="10.54096852493755"><ele>145.5</ele><time>2026-04-04T14:20:08.993Z</time></trkpt><trkpt lat="45.376863039322146" lon="10.540951077019606"><ele>148.0</ele><time>2026-04-04T14:20:11.993Z</time></trkpt><trkpt lat="45.37692853384486" lon="10.540914803753477"><ele>148.0</ele><time>2026-04-04T14:20:14.993Z</time></trkpt><trkpt lat="45.37697924083422" lon="10.540839884789689"><ele>148.0</ele><time>2026-04-04T14:20:18.993Z</time></trkpt><trkpt lat="45.377039247916414" lon="10.540783095818146"><ele>148.0</ele><time>2026-04-04T14:20:24.995Z</time></trkpt><trkpt lat="45.37713075461888" lon="10.540765961890246"><ele>148.0</ele><time>2026-04-04T14:20:33.995Z</time></trkpt><trkpt lat="45.377208252055354" lon="10.540741981875087"><ele>148.0</ele><time>2026-04-04T14:20:39.995Z</time></trkpt><trkpt lat="45.377293669512476" lon="10.540720411323285"><ele>148.0</ele><time>2026-04-04T14:20:45.995Z</time></trkpt><trkpt lat="45.37736526126756" lon="10.54072228544006"><ele>148.8</ele><time>2026-04-04T14:20:50.995Z</time></trkpt><trkpt lat="45.37745701843978" lon="10.540725242033265"><ele>149.60000000000002</ele><time>2026-04-04T14:20:54.995Z</time></trkpt><trkpt lat="45.377633106473546" lon="10.540665687691876"><ele>150.39999999999998</ele><time>2026-04-04T14:21:01.994Z</time></trkpt><trkpt lat="45.377710521249256" lon="10.540683026045112"><ele>151.2</ele><time>2026-04-04T14:21:04.994Z</time></trkpt><trkpt lat="45.37777521916524" lon="10.540715728002604"><ele>152.0</ele><time>2026-04-04T14:21:07.994Z</time></trkpt><trkpt lat="45.37786055048671" lon="10.540720854405299"><ele>152.0</ele><time>2026-04-04T14:21:10.994Z</time></trkpt><trkpt lat="45.37792470529055" lon="10.540644614910768"><ele>152.0</ele><time>2026-04-04T14:21:12.994Z</time></trkpt><trkpt lat="45.37797714806527" lon="10.540586840230207"><ele>152.0</ele><time>2026-04-04T14:21:15.994Z</time></trkpt><trkpt lat="45.37802724137528" lon="10.540503702907566"><ele>152.0</ele><time>2026-04-04T14:21:18.994Z</time></trkpt><trkpt lat="45.378066167808505" lon="10.540422090799122"><ele>152.0</ele><time>2026-04-04T14:21:21.994Z</time></trkpt><trkpt lat="45.3781198267985" lon="10.540374847158622"><ele>152.0</ele><time>2026-04-04T14:21:24.994Z</time></trkpt><trkpt lat="45.37814721650235" lon="10.540290437031958"><ele>152.0</ele><time>2026-04-04T14:21:27.994Z</time></trkpt><trkpt lat="45.37818652845855" lon="10.540220009219077"><ele>153.28571428571428</ele><time>2026-04-04T14:21:30.994Z</time></trkpt><trkpt lat="45.37821585765046" lon="10.540105363769412"><ele>154.57142857142858</ele><time>2026-04-04T14:21:34.994Z</time></trkpt><trkpt lat="45.37826250316999" lon="10.540007786972609"><ele>155.85714285714286</ele><time>2026-04-04T14:21:39.994Z</time></trkpt><trkpt lat="45.37829003671941" lon="10.539906272932521"><ele>157.14285714285714</ele><time>2026-04-04T14:21:43.994Z</time></trkpt><trkpt lat="45.37830368597997" lon="10.53981506170294"><ele>158.42857142857144</ele><time>2026-04-04T14:21:47.994Z</time></trkpt><trkpt lat="45.37831248418265" lon="10.539708605208874"><ele>159.71428571428572</ele><time>2026-04-04T14:21:51.994Z</time></trkpt><trkpt lat="45.378321105632345" lon="10.539618910655596"><ele>161.0</ele><time>2026-04-04T14:21:55.994Z</time></trkpt><trkpt lat="45.3783299954351" lon="10.53951052340787"><ele>161.57142857142858</ele><time>2026-04-04T14:22:00.993Z</time></trkpt><trkpt lat="45.3783375701676" lon="10.539410677445133"><ele>162.14285714285714</ele><time>2026-04-04T14:22:04.993Z</time></trkpt><trkpt lat="45.37833454025996" lon="10.53931115390017"><ele>162.71428571428572</ele><time>2026-04-04T14:22:08.993Z</time></trkpt><trkpt lat="45.378344654797" lon="10.539195394025885"><ele>163.28571428571428</ele><time>2026-04-04T14:22:12.993Z</time></trkpt><trkpt lat="45.37836358800682" lon="10.539104186089299"><ele>163.85714285714286</ele><time>2026-04-04T14:22:15.993Z</time></trkpt><trkpt lat="45.37838514998444" lon="10.53900275980934"><ele>164.42857142857144</ele><time>2026-04-04T14:22:18.993Z</time></trkpt><trkpt lat="45.37840249910308" lon="10.53889490966155"><ele>165.0</ele><time>2026-04-04T14:22:21.993Z</time></trkpt><trkpt lat="45.37844632755546" lon="10.538779714128426"><ele>165.42857142857144</ele><time>2026-04-04T14:22:24.993Z</time></trkpt><trkpt lat="45.378499989164304" lon="10.538705476614773"><ele>165.85714285714286</ele><time>2026-04-04T14:22:27.993Z</time></trkpt><trkpt lat="45.378549703342955" lon="10.538649240940613"><ele>166.28571428571428</ele><time>2026-04-04T14:22:30.995Z</time></trkpt><trkpt lat="45.378608707796396" lon="10.538595205542723"><ele>166.71428571428572</ele><time>2026-04-04T14:22:33.996Z</time></trkpt><trkpt lat="45.37868690791655" lon="10.538554744559258"><ele>167.14285714285714</ele><time>2026-04-04T14:22:37.995Z</time></trkpt><trkpt lat="45.37874004166714" lon="10.538486505043688"><ele>167.57142857142858</ele><time>2026-04-04T14:22:40.995Z</time></trkpt><trkpt lat="45.37878500236792" lon="10.538418285989644"><ele>168.0</ele><time>2026-04-04T14:22:42.995Z</time></trkpt><trkpt lat="45.378837806972285" lon="10.53832513577974"><ele>167.85714285714286</ele><time>2026-04-04T14:22:45.995Z</time></trkpt><trkpt lat="45.378862573893024" lon="10.538239158434676"><ele>167.71428571428572</ele><time>2026-04-04T14:22:47.995Z</time></trkpt><trkpt lat="45.378898532113226" lon="10.538125929797244"><ele>167.57142857142856</ele><time>2026-04-04T14:22:50.995Z</time></trkpt><trkpt lat="45.37894890664613" lon="10.53805276312274"><ele>167.42857142857144</ele><time>2026-04-04T14:22:53.995Z</time></trkpt><trkpt lat="45.37899861662809" lon="10.537970670659657"><ele>167.28571428571428</ele><time>2026-04-04T14:22:56.995Z</time></trkpt><trkpt lat="45.37903997420623" lon="10.537900437325767"><ele>167.14285714285714</ele><time>2026-04-04T14:22:59.995Z</time></trkpt><trkpt lat="45.37907042604313" lon="10.53780909301249"><ele>167.0</ele><time>2026-04-04T14:23:01.995Z</time></trkpt><trkpt lat="45.3791268441323" lon="10.537766313975025"><ele>167.0</ele><time>2026-04-04T14:23:04.995Z</time></trkpt><trkpt lat="45.37920379901542" lon="10.53770559691028"><ele>167.0</ele><time>2026-04-04T14:23:07.995Z</time></trkpt><trkpt lat="45.37927276169977" lon="10.537658464834218"><ele>167.0</ele><time>2026-04-04T14:23:10.995Z</time></trkpt><trkpt lat="45.37933996037551" lon="10.5375825243244"><ele>167.0</ele><time>2026-04-04T14:23:13.995Z</time></trkpt><trkpt lat="45.37938865086344" lon="10.537522575059453"><ele>167.0</ele><time>2026-04-04T14:23:15.995Z</time></trkpt><trkpt lat="45.37943980402533" lon="10.53744743316039"><ele>167.0</ele><time>2026-04-04T14:23:17.995Z</time></trkpt><trkpt lat="45.37949055130369" lon="10.537385917756831"><ele>167.0</ele><time>2026-04-04T14:23:19.995Z</time></trkpt><trkpt lat="45.379529966437026" lon="10.537285177345536"><ele>167.0</ele><time>2026-04-04T14:23:21.995Z</time></trkpt><trkpt lat="45.37955860487181" lon="10.53718553063197"><ele>167.0</ele><time>2026-04-04T14:23:23.995Z</time></trkpt><trkpt lat="45.37959842079177" lon="10.53710322258899"><ele>167.0</ele><time>2026-04-04T14:23:25.995Z</time></trkpt><trkpt lat="45.37965889138052" lon="10.53703153592437"><ele>167.0</ele><time>2026-04-04T14:23:28.995Z</time></trkpt><trkpt lat="45.37973074075638" lon="10.536959856001472"><ele>167.0</ele><time>2026-04-04T14:23:31.994Z</time></trkpt><trkpt lat="45.37979951271597" lon="10.536892917372336"><ele>165.33333333333331</ele><time>2026-04-04T14:23:34.994Z</time></trkpt><trkpt lat="45.37985856770912" lon="10.536816271333953"><ele>163.66666666666666</ele><time>2026-04-04T14:23:37.994Z</time></trkpt><trkpt lat="45.379919042346245" lon="10.536729505113659"><ele>162.0</ele><time>2026-04-04T14:23:40.994Z</time></trkpt><trkpt lat="45.37998863699925" lon="10.536690812223025"><ele>160.33333333333334</ele><time>2026-04-04T14:23:43.994Z</time></trkpt><trkpt lat="45.38004070582971" lon="10.536602346040658"><ele>158.66666666666669</ele><time>2026-04-04T14:23:45.994Z</time></trkpt><trkpt lat="45.380068592020876" lon="10.53649465596568"><ele>157.0</ele><time>2026-04-04T14:23:47.994Z</time></trkpt><trkpt lat="45.38008032615906" lon="10.536353110061704"><ele>156.99999999999997</ele><time>2026-04-04T14:23:49.994Z</time></trkpt><trkpt lat="45.380077994825825" lon="10.536246110692293"><ele>157.0</ele><time>2026-04-04T14:23:51.994Z</time></trkpt><trkpt lat="45.38008374647594" lon="10.536112207071952"><ele>157.0</ele><time>2026-04-04T14:23:54.994Z</time></trkpt><trkpt lat="45.38012063797945" lon="10.536015604917717"><ele>157.0</ele><time>2026-04-04T14:23:57.994Z</time></trkpt><trkpt lat="45.380150348935985" lon="10.53593103729361"><ele>157.0</ele><time>2026-04-04T14:24:00.994Z</time></trkpt><trkpt lat="45.38016248723078" lon="10.535831615763444"><ele>156.99999999999997</ele><time>2026-04-04T14:24:03.994Z</time></trkpt><trkpt lat="45.3801809117075" lon="10.53574541976149"><ele>157.0</ele><time>2026-04-04T14:24:06.994Z</time></trkpt><trkpt lat="45.380173715568006" lon="10.53564509292154"><ele>158.42857142857142</ele><time>2026-04-04T14:24:09.994Z</time></trkpt><trkpt lat="45.380141537800775" lon="10.53555405452173"><ele>159.85714285714286</ele><time>2026-04-04T14:24:12.994Z</time></trkpt><trkpt lat="45.38012496543861" lon="10.535440735198057"><ele>161.28571428571428</ele><time>2026-04-04T14:24:16.994Z</time></trkpt><trkpt lat="45.380141260132056" lon="10.53535012929976"><ele>162.71428571428572</ele><time>2026-04-04T14:24:19.994Z</time></trkpt><trkpt lat="45.380169511393625" lon="10.535262720407028"><ele>164.14285714285714</ele><time>2026-04-04T14:24:22.994Z</time></trkpt><trkpt lat="45.38020129852433" lon="10.535160806152899"><ele>165.57142857142856</ele><time>2026-04-04T14:24:26.994Z</time></trkpt><trkpt lat="45.38019429573671" lon="10.535070679857581"><ele>167.0</ele><time>2026-04-04T14:24:29.994Z</time></trkpt><trkpt lat="45.380227226129676" lon="10.534992186255831"><ele>168.5</ele><time>2026-04-04T14:24:32.993Z</time></trkpt><trkpt lat="45.380264679352834" lon="10.53489011312127"><ele>170.0</ele><time>2026-04-04T14:24:36.996Z</time></trkpt><trkpt lat="45.38029927842703" lon="10.534803461897866"><ele>171.5</ele><time>2026-04-04T14:24:39.996Z</time></trkpt><trkpt lat="45.38035156275529" lon="10.534722905706438"><ele>173.0</ele><time>2026-04-04T14:24:43.995Z</time></trkpt><trkpt lat="45.380389806536634" lon="10.534640963565716"><ele>174.5</ele><time>2026-04-04T14:24:47.996Z</time></trkpt><trkpt lat="45.38041425756635" lon="10.53453659992024"><ele>176.0</ele><time>2026-04-04T14:24:51.996Z</time></trkpt><trkpt lat="45.3804378443886" lon="10.534429513836978"><ele>176.71428571428572</ele><time>2026-04-04T14:24:54.996Z</time></trkpt><trkpt lat="45.38045249403933" lon="10.53432712732335"><ele>177.42857142857142</ele><time>2026-04-04T14:24:56.996Z</time></trkpt><trkpt lat="45.38047713188887" lon="10.53420862772183"><ele>178.14285714285714</ele><time>2026-04-04T14:24:59.996Z</time></trkpt><trkpt lat="45.38044754207533" lon="10.534090388316134"><ele>178.85714285714286</ele><time>2026-04-04T14:25:01.996Z</time></trkpt><trkpt lat="45.38045123070787" lon="10.533997149646616"><ele>179.57142857142856</ele><time>2026-04-04T14:25:03.996Z</time></trkpt><trkpt lat="45.380460478004316" lon="10.533907617190323"><ele>180.28571428571428</ele><time>2026-04-04T14:25:05.996Z</time></trkpt><trkpt lat="45.38043646070863" lon="10.533818429837615"><ele>181.0</ele><time>2026-04-04T14:25:07.996Z</time></trkpt><trkpt lat="45.38040565492627" lon="10.53373826210912"><ele>180.83333333333334</ele><time>2026-04-04T14:25:09.996Z</time></trkpt><trkpt lat="45.38035082193421" lon="10.533635827690283"><ele>180.66666666666669</ele><time>2026-04-04T14:25:12.996Z</time></trkpt><trkpt lat="45.380285490442056" lon="10.533560288404342"><ele>180.5</ele><time>2026-04-04T14:25:15.996Z</time></trkpt><trkpt lat="45.38022668166503" lon="10.533488073622872"><ele>180.33333333333334</ele><time>2026-04-04T14:25:18.996Z</time></trkpt><trkpt lat="45.380197070973175" lon="10.533402368930856"><ele>180.16666666666666</ele><time>2026-04-04T14:25:21.996Z</time></trkpt><trkpt lat="45.38017672227052" lon="10.533306678985879"><ele>180.0</ele><time>2026-04-04T14:25:24.996Z</time></trkpt><trkpt lat="45.3801372691444" lon="10.533212691793048"><ele>180.0</ele><time>2026-04-04T14:25:28.995Z</time></trkpt><trkpt lat="45.38009788907448" lon="10.5331168723558"><ele>180.0</ele><time>2026-04-04T14:25:34.995Z</time></trkpt><trkpt lat="45.38004046673568" lon="10.533054401204645"><ele>180.0</ele><time>2026-04-04T14:25:39.995Z</time></trkpt><trkpt lat="45.37998389708372" lon="10.53299680598269"><ele>180.0</ele><time>2026-04-04T14:25:43.995Z</time></trkpt><trkpt lat="45.37993705231067" lon="10.532936659467625"><ele>180.0</ele><time>2026-04-04T14:25:48.995Z</time></trkpt><trkpt lat="45.3798737655155" lon="10.532897628380036"><ele>180.0</ele><time>2026-04-04T14:25:52.995Z</time></trkpt><trkpt lat="45.379812057257496" lon="10.53285336626268"><ele>180.0</ele><time>2026-04-04T14:25:56.995Z</time></trkpt><trkpt lat="45.37974155000778" lon="10.53281720692009"><ele>181.16666666666666</ele><time>2026-04-04T14:26:04.995Z</time></trkpt><trkpt lat="45.379679176022265" lon="10.532832762414428"><ele>182.33333333333334</ele><time>2026-04-04T14:26:09.995Z</time></trkpt><trkpt lat="45.379618755249496" lon="10.532858141356217"><ele>183.5</ele><time>2026-04-04T14:26:15.995Z</time></trkpt><trkpt lat="45.37957783681502" lon="10.53293544980178"><ele>184.66666666666669</ele><time>2026-04-04T14:26:20.995Z</time></trkpt><trkpt lat="45.37955286087789" lon="10.533059468871466"><ele>185.83333333333334</ele><time>2026-04-04T14:26:24.994Z</time></trkpt><trkpt lat="45.379564119732976" lon="10.53317854472825"><ele>187.0</ele><time>2026-04-04T14:26:27.994Z</time></trkpt><trkpt lat="45.37959327071376" lon="10.533290119460982"><ele>187.0</ele><time>2026-04-04T14:26:30.994Z</time></trkpt><trkpt lat="45.37961946079314" lon="10.5333942541901"><ele>187.0</ele><time>2026-04-04T14:26:33.994Z</time></trkpt><trkpt lat="45.37963248788508" lon="10.533484253644719"><ele>187.0</ele><time>2026-04-04T14:26:36.994Z</time></trkpt><trkpt lat="45.3796577891526" lon="10.533588515297641"><ele>187.0</ele><time>2026-04-04T14:26:39.997Z</time></trkpt><trkpt lat="45.37969385679181" lon="10.53368711499135"><ele>187.0</ele><time>2026-04-04T14:26:42.997Z</time></trkpt><trkpt lat="45.37973910455938" lon="10.53379014309459"><ele>187.0</ele><time>2026-04-04T14:26:45.997Z</time></trkpt><trkpt lat="45.37975203992517" lon="10.533882782467025"><ele>187.0</ele><time>2026-04-04T14:26:48.996Z</time></trkpt><trkpt lat="45.37973347656924" lon="10.533973427990293"><ele>186.28571428571428</ele><time>2026-04-04T14:26:51.996Z</time></trkpt><trkpt lat="45.379710526473076" lon="10.53405915426807"><ele>185.57142857142858</ele><time>2026-04-04T14:26:54.996Z</time></trkpt><trkpt lat="45.37964874686266" lon="10.534104809844136"><ele>184.85714285714286</ele><time>2026-04-04T14:26:57.996Z</time></trkpt><trkpt lat="45.37959834684691" lon="10.53416919555347"><ele>184.14285714285714</ele><time>2026-04-04T14:27:00.996Z</time></trkpt><trkpt lat="45.379571091271465" lon="10.534279266221265"><ele>183.42857142857144</ele><time>2026-04-04T14:27:03.996Z</time></trkpt><trkpt lat="45.37956654810564" lon="10.53437950626159"><ele>182.71428571428572</ele><time>2026-04-04T14:27:06.996Z</time></trkpt><trkpt lat="45.37951198457406" lon="10.534452554813486"><ele>182.0</ele><time>2026-04-04T14:27:10.996Z</time></trkpt><trkpt lat="45.37945913223233" lon="10.53453371261271"><ele>181.83333333333331</ele><time>2026-04-04T14:27:14.996Z</time></trkpt><trkpt lat="45.379410955775114" lon="10.534626131664949"><ele>181.66666666666666</ele><time>2026-04-04T14:27:17.996Z</time></trkpt><trkpt lat="45.37936288666522" lon="10.534721599243175"><ele>181.5</ele><time>2026-04-04T14:27:20.996Z</time></trkpt><trkpt lat="45.37933438854336" lon="10.53480715379242"><ele>181.33333333333334</ele><time>2026-04-04T14:27:22.996Z</time></trkpt><trkpt lat="45.37927425953874" lon="10.534894073442924"><ele>181.16666666666669</ele><time>2026-04-04T14:27:25.996Z</time></trkpt><trkpt lat="45.37922917802732" lon="10.534985754015214"><ele>181.0</ele><time>2026-04-04T14:27:28.996Z</time></trkpt><trkpt lat="45.379186979832284" lon="10.535075942462484"><ele>181.0</ele><time>2026-04-04T14:27:31.996Z</time></trkpt><trkpt lat="45.37914033101883" lon="10.53519973983247"><ele>181.0</ele><time>2026-04-04T14:27:34.996Z</time></trkpt><trkpt lat="45.37909283892138" lon="10.535304470689312"><ele>181.0</ele><time>2026-04-04T14:27:37.996Z</time></trkpt><trkpt lat="45.37905651059734" lon="10.535415332989102"><ele>181.0</ele><time>2026-04-04T14:27:40.995Z</time></trkpt><trkpt lat="45.37900875697016" lon="10.53548595816115"><ele>181.0</ele><time>2026-04-04T14:27:42.995Z</time></trkpt><trkpt lat="45.37898407793424" lon="10.535607139408972"><ele>181.0</ele><time>2026-04-04T14:27:44.995Z</time></trkpt><trkpt lat="45.37896389661702" lon="10.535705185221072"><ele>180.66666666666669</ele><time>2026-04-04T14:27:46.995Z</time></trkpt><trkpt lat="45.37894859058414" lon="10.535802923786921"><ele>180.33333333333334</ele><time>2026-04-04T14:27:48.995Z</time></trkpt><trkpt lat="45.37893688874971" lon="10.535896414828791"><ele>180.0</ele><time>2026-04-04T14:27:50.995Z</time></trkpt><trkpt lat="45.378885950449536" lon="10.535979226141961"><ele>179.66666666666666</ele><time>2026-04-04T14:27:53.995Z</time></trkpt><trkpt lat="45.37881083212653" lon="10.5360022667094"><ele>179.33333333333331</ele><time>2026-04-04T14:27:56.995Z</time></trkpt><trkpt lat="45.37873488974933" lon="10.536070153485737"><ele>179.0</ele><time>2026-04-04T14:27:59.995Z</time></trkpt><trkpt lat="45.37866361038761" lon="10.53614959648757"><ele>178.2857142857143</ele><time>2026-04-04T14:28:02.995Z</time></trkpt><trkpt lat="45.37859719003122" lon="10.536219802993546"><ele>177.57142857142858</ele><time>2026-04-04T14:28:05.995Z</time></trkpt><trkpt lat="45.378555116429744" lon="10.53628722187235"><ele>176.85714285714286</ele><time>2026-04-04T14:28:07.995Z</time></trkpt><trkpt lat="45.37851935104518" lon="10.536395868234543"><ele>176.14285714285717</ele><time>2026-04-04T14:28:09.995Z</time></trkpt><trkpt lat="45.37847936974468" lon="10.536477346006388"><ele>175.42857142857144</ele><time>2026-04-04T14:28:11.995Z</time></trkpt><trkpt lat="45.37843490153345" lon="10.53655599757507"><ele>174.71428571428572</ele><time>2026-04-04T14:28:13.995Z</time></trkpt><trkpt lat="45.3783792228621" lon="10.536624629470566"><ele>174.0</ele><time>2026-04-04T14:28:15.995Z</time></trkpt><trkpt lat="45.37836258677304" lon="10.536738830538123"><ele>174.0</ele><time>2026-04-04T14:28:17.995Z</time></trkpt><trkpt lat="45.37834698819876" lon="10.536849424588054"><ele>174.0</ele><time>2026-04-04T14:28:19.995Z</time></trkpt><trkpt lat="45.37832600020061" lon="10.536939798272035"><ele>174.0</ele><time>2026-04-04T14:28:21.995Z</time></trkpt><trkpt lat="45.378287080710784" lon="10.537057661255446"><ele>174.0</ele><time>2026-04-04T14:28:24.995Z</time></trkpt><trkpt lat="45.37827508441613" lon="10.537151789270034"><ele>174.0</ele><time>2026-04-04T14:28:26.995Z</time></trkpt><trkpt lat="45.37823494851042" lon="10.537268848565942"><ele>174.0</ele><time>2026-04-04T14:28:29.995Z</time></trkpt><trkpt lat="45.378193411723466" lon="10.537365538767057"><ele>173.83333333333334</ele><time>2026-04-04T14:28:32.995Z</time></trkpt><trkpt lat="45.37814966927472" lon="10.537449283847707"><ele>173.66666666666666</ele><time>2026-04-04T14:28:35.995Z</time></trkpt><trkpt lat="45.37810508690749" lon="10.53754276906163"><ele>173.5</ele><time>2026-04-04T14:28:38.995Z</time></trkpt><trkpt lat="45.37804951088601" lon="10.53760674781849"><ele>173.33333333333331</ele><time>2026-04-04T14:28:41.994Z</time></trkpt><trkpt lat="45.377992569500364" lon="10.537667150616373"><ele>173.16666666666666</ele><time>2026-04-04T14:28:44.994Z</time></trkpt><trkpt lat="45.377938130075584" lon="10.53774735529486"><ele>173.0</ele><time>2026-04-04T14:28:47.997Z</time></trkpt><trkpt lat="45.377863678099445" lon="10.53777560810392"><ele>171.16666666666666</ele><time>2026-04-04T14:28:50.997Z</time></trkpt><trkpt lat="45.37777891577391" lon="10.537805847898086"><ele>169.33333333333331</ele><time>2026-04-04T14:28:53.997Z</time></trkpt><trkpt lat="45.377700289400146" lon="10.537851012510602"><ele>167.5</ele><time>2026-04-04T14:28:56.997Z</time></trkpt><trkpt lat="45.37762777059719" lon="10.5379002616388"><ele>165.66666666666666</ele><time>2026-04-04T14:28:59.997Z</time></trkpt><trkpt lat="45.377544861585626" lon="10.537963785856482"><ele>163.83333333333334</ele><time>2026-04-04T14:29:02.997Z</time></trkpt><trkpt lat="45.377462155922494" lon="10.537993607666053"><ele>162.0</ele><time>2026-04-04T14:29:05.997Z</time></trkpt><trkpt lat="45.37737801824605" lon="10.538019015300568"><ele>162.0</ele><time>2026-04-04T14:29:08.997Z</time></trkpt><trkpt lat="45.37732552186053" lon="10.538077200056101"><ele>162.0</ele><time>2026-04-04T14:29:10.997Z</time></trkpt><trkpt lat="45.37726406316174" lon="10.538100600326826"><ele>162.0</ele><time>2026-04-04T14:29:12.997Z</time></trkpt><trkpt lat="45.37717814580576" lon="10.538110553724634"><ele>162.0</ele><time>2026-04-04T14:29:15.997Z</time></trkpt><trkpt lat="45.377109889186904" lon="10.538113564111187"><ele>162.0</ele><time>2026-04-04T14:29:18.997Z</time></trkpt><trkpt lat="45.377044799574556" lon="10.538112283303867"><ele>162.0</ele><time>2026-04-04T14:29:22.997Z</time></trkpt><trkpt lat="45.37697161497094" lon="10.538117892461713"><ele>162.0</ele><time>2026-04-04T14:29:26.997Z</time></trkpt><trkpt lat="45.37689515595547" lon="10.538146357792298"><ele>159.83333333333334</ele><time>2026-04-04T14:29:30.997Z</time></trkpt><trkpt lat="45.376828168367815" lon="10.538172505998057"><ele>157.66666666666666</ele><time>2026-04-04T14:29:33.997Z</time></trkpt><trkpt lat="45.376771892630636" lon="10.53822806782707"><ele>155.5</ele><time>2026-04-04T14:29:37.997Z</time></trkpt><trkpt lat="45.376705536979415" lon="10.53826235175132"><ele>153.33333333333331</ele><time>2026-04-04T14:29:40.997Z</time></trkpt><trkpt lat="45.3766393384144" lon="10.538333956457121"><ele>151.16666666666666</ele><time>2026-04-04T14:29:43.997Z</time></trkpt><trkpt lat="45.37659701068473" lon="10.538450142130925"><ele>149.0</ele><time>2026-04-04T14:29:46.997Z</time></trkpt><trkpt lat="45.37653443480299" lon="10.538540963948188"><ele>149.0</ele><time>2026-04-04T14:29:49.997Z</time></trkpt><trkpt lat="45.376490448920165" lon="10.53861090053556"><ele>149.0</ele><time>2026-04-04T14:29:51.997Z</time></trkpt><trkpt lat="45.37642534666937" lon="10.538699648183211"><ele>149.0</ele><time>2026-04-04T14:29:54.996Z</time></trkpt><trkpt lat="45.37637967834945" lon="10.538778899121425"><ele>149.0</ele><time>2026-04-04T14:29:56.996Z</time></trkpt><trkpt lat="45.376334539260355" lon="10.538850328863786"><ele>149.0</ele><time>2026-04-04T14:29:58.996Z</time></trkpt><trkpt lat="45.37628216685905" lon="10.538912193243915"><ele>149.0</ele><time>2026-04-04T14:30:00.996Z</time></trkpt><trkpt lat="45.376212979727605" lon="10.538978860862493"><ele>149.0</ele><time>2026-04-04T14:30:03.996Z</time></trkpt><trkpt lat="45.376160990458196" lon="10.539048583051311"><ele>149.33333333333331</ele><time>2026-04-04T14:30:05.996Z</time></trkpt><trkpt lat="45.37611348502141" lon="10.539148184733683"><ele>149.66666666666666</ele><time>2026-04-04T14:30:08.996Z</time></trkpt><trkpt lat="45.37609681116494" lon="10.539251990862153"><ele>150.0</ele><time>2026-04-04T14:30:10.996Z</time></trkpt><trkpt lat="45.376080476272" lon="10.539365635979156"><ele>150.33333333333334</ele><time>2026-04-04T14:30:13.996Z</time></trkpt><trkpt lat="45.37608139939272" lon="10.539485615230438"><ele>150.66666666666669</ele><time>2026-04-04T14:30:16.996Z</time></trkpt><trkpt lat="45.3760658293295" lon="10.539588720345602"><ele>151.0</ele><time>2026-04-04T14:30:19.996Z</time></trkpt><trkpt lat="45.37600440074875" lon="10.539630322937924"><ele>151.0</ele><time>2026-04-04T14:30:22.996Z</time></trkpt><trkpt lat="45.37593113104373" lon="10.539605687745622"><ele>151.0</ele><time>2026-04-04T14:30:25.996Z</time></trkpt><trkpt lat="45.37585067082878" lon="10.539615295651137"><ele>151.0</ele><time>2026-04-04T14:30:28.996Z</time></trkpt><trkpt lat="45.3757661101176" lon="10.53960486199805"><ele>151.0</ele><time>2026-04-04T14:30:31.996Z</time></trkpt><trkpt lat="45.375677560986624" lon="10.53962206113989"><ele>151.0</ele><time>2026-04-04T14:30:34.996Z</time></trkpt><trkpt lat="45.37561149512974" lon="10.53961586963795"><ele>151.0</ele><time>2026-04-04T14:30:36.996Z</time></trkpt><trkpt lat="45.37554262429228" lon="10.5396145982296"><ele>150.2857142857143</ele><time>2026-04-04T14:30:38.996Z</time></trkpt><trkpt lat="45.37547023683923" lon="10.539638152305075"><ele>149.57142857142858</ele><time>2026-04-04T14:30:40.996Z</time></trkpt><trkpt lat="45.375395390586995" lon="10.5396478987981"><ele>148.85714285714286</ele><time>2026-04-04T14:30:42.996Z</time></trkpt><trkpt lat="45.375332261129394" lon="10.539655690313612"><ele>148.14285714285717</ele><time>2026-04-04T14:30:44.996Z</time></trkpt><trkpt lat="45.37526464396117" lon="10.539659545207073"><ele>147.42857142857144</ele><time>2026-04-04T14:30:46.996Z</time></trkpt><trkpt lat="45.37519394788696" lon="10.539668034819588"><ele>146.71428571428572</ele><time>2026-04-04T14:30:48.996Z</time></trkpt><trkpt lat="45.37512456240507" lon="10.539672936745706"><ele>146.0</ele><time>2026-04-04T14:30:50.996Z</time></trkpt><trkpt lat="45.375053195420776" lon="10.539668501500874"><ele>146.0</ele><time>2026-04-04T14:30:52.998Z</time></trkpt><trkpt lat="45.37497797798447" lon="10.539686888726232"><ele>146.0</ele><time>2026-04-04T14:30:54.998Z</time></trkpt><trkpt lat="45.37490295759757" lon="10.53967964855196"><ele>146.0</ele><time>2026-04-04T14:30:56.997Z</time></trkpt><trkpt lat="45.3748326287094" lon="10.539666534404423"><ele>146.0</ele><time>2026-04-04T14:30:58.998Z</time></trkpt><trkpt lat="45.37476370614546" lon="10.539661420872587"><ele>146.0</ele><time>2026-04-04T14:31:00.998Z</time></trkpt><trkpt lat="45.374693154243694" lon="10.539652607859937"><ele>146.0</ele><time>2026-04-04T14:31:02.997Z</time></trkpt><trkpt lat="45.3746244808852" lon="10.5396402326594"><ele>146.0</ele><time>2026-04-04T14:31:04.998Z</time></trkpt><trkpt lat="45.37455041885645" lon="10.5396260121098"><ele>145.14285714285714</ele><time>2026-04-04T14:31:06.998Z</time></trkpt><trkpt lat="45.37448066097878" lon="10.539616020405633"><ele>144.28571428571428</ele><time>2026-04-04T14:31:08.998Z</time></trkpt><trkpt lat="45.37440463355681" lon="10.539607528580104"><ele>143.42857142857144</ele><time>2026-04-04T14:31:10.998Z</time></trkpt><trkpt lat="45.374325070562655" lon="10.539599946824852"><ele>142.57142857142856</ele><time>2026-04-04T14:31:12.998Z</time></trkpt><trkpt lat="45.37426050390125" lon="10.539575113393983"><ele>141.71428571428572</ele><time>2026-04-04T14:31:14.998Z</time></trkpt><trkpt lat="45.37420502514541" lon="10.539518013668484"><ele>140.85714285714286</ele><time>2026-04-04T14:31:16.998Z</time></trkpt><trkpt lat="45.37419604686014" lon="10.539406890151662"><ele>140.0</ele><time>2026-04-04T14:31:19.998Z</time></trkpt><trkpt lat="45.37420279527024" lon="10.539305916799812"><ele>138.66666666666666</ele><time>2026-04-04T14:31:22.998Z</time></trkpt><trkpt lat="45.37419560736025" lon="10.539161795626777"><ele>137.33333333333331</ele><time>2026-04-04T14:31:25.998Z</time></trkpt><trkpt lat="45.37419305438879" lon="10.539064206676036"><ele>136.0</ele><time>2026-04-04T14:31:27.998Z</time></trkpt><trkpt lat="45.374192759182975" lon="10.538967950249338"><ele>134.66666666666666</ele><time>2026-04-04T14:31:29.998Z</time></trkpt><trkpt lat="45.374219821465985" lon="10.538851789515778"><ele>133.33333333333334</ele><time>2026-04-04T14:31:32.997Z</time></trkpt><trkpt lat="45.37425155556005" lon="10.538731098755452"><ele>132.0</ele><time>2026-04-04T14:31:35.997Z</time></trkpt><trkpt lat="45.37426951023784" lon="10.538625098017627"><ele>131.5</ele><time>2026-04-04T14:31:37.997Z</time></trkpt><trkpt lat="45.37429270139631" lon="10.538495290679029"><ele>131.0</ele><time>2026-04-04T14:31:40.997Z</time></trkpt><trkpt lat="45.37431403872068" lon="10.53836282712085"><ele>130.5</ele><time>2026-04-04T14:31:43.997Z</time></trkpt><trkpt lat="45.37433304921378" lon="10.538225769765278"><ele>130.0</ele><time>2026-04-04T14:31:46.997Z</time></trkpt><trkpt lat="45.374340150679764" lon="10.53813359887395"><ele>129.5</ele><time>2026-04-04T14:31:48.997Z</time></trkpt><trkpt lat="45.37433566240996" lon="10.538002070358518"><ele>129.0</ele><time>2026-04-04T14:31:51.997Z</time></trkpt><trkpt lat="45.37434643540551" lon="10.537871103107399"><ele>128.83333333333334</ele><time>2026-04-04T14:31:54.997Z</time></trkpt><trkpt lat="45.37435822277926" lon="10.537739174808568"><ele>128.66666666666666</ele><time>2026-04-04T14:31:57.997Z</time></trkpt><trkpt lat="45.37435477814858" lon="10.537647669941762"><ele>128.5</ele><time>2026-04-04T14:31:59.997Z</time></trkpt><trkpt lat="45.37436377051898" lon="10.537517576516588"><ele>128.33333333333331</ele><time>2026-04-04T14:32:02.997Z</time></trkpt><trkpt lat="45.374363092828375" lon="10.537382956396987"><ele>128.16666666666666</ele><time>2026-04-04T14:32:05.997Z</time></trkpt><trkpt lat="45.37437096256522" lon="10.537256399182533"><ele>128.0</ele><time>2026-04-04T14:32:08.997Z</time></trkpt><trkpt lat="45.37438489759993" lon="10.537135250489687"><ele>129.0</ele><time>2026-04-04T14:32:11.997Z</time></trkpt><trkpt lat="45.374400272214515" lon="10.537037383872162"><ele>130.0</ele><time>2026-04-04T14:32:14.997Z</time></trkpt><trkpt lat="45.37442505286425" lon="10.536933011622677"><ele>131.0</ele><time>2026-04-04T14:32:18.997Z</time></trkpt><trkpt lat="45.37442037965717" lon="10.536816330011991"><ele>132.0</ele><time>2026-04-04T14:32:21.997Z</time></trkpt><trkpt lat="45.37443411203121" lon="10.536694760831804"><ele>133.0</ele><time>2026-04-04T14:32:25.997Z</time></trkpt><trkpt lat="45.374437139926904" lon="10.53658502265244"><ele>134.0</ele><time>2026-04-04T14:32:28.997Z</time></trkpt><trkpt lat="45.374454542552364" lon="10.536489555680443"><ele>134.0</ele><time>2026-04-04T14:32:31.996Z</time></trkpt><trkpt lat="45.37447582959152" lon="10.536385734295205"><ele>134.0</ele><time>2026-04-04T14:32:34.996Z</time></trkpt><trkpt lat="45.3745003685966" lon="10.536282614743575"><ele>134.0</ele><time>2026-04-04T14:32:37.996Z</time></trkpt><trkpt lat="45.37451109463571" lon="10.536170651833265"><ele>134.0</ele><time>2026-04-04T14:32:40.996Z</time></trkpt><trkpt lat="45.37452767452348" lon="10.536062558540355"><ele>134.0</ele><time>2026-04-04T14:32:42.996Z</time></trkpt><trkpt lat="45.37451915989466" lon="10.53590371177854"><ele>134.0</ele><time>2026-04-04T14:32:44.996Z</time></trkpt><trkpt lat="45.37450799929324" lon="10.53579476824883"><ele>135.5</ele><time>2026-04-04T14:32:46.996Z</time></trkpt><trkpt lat="45.37451709772624" lon="10.535683583317079"><ele>137.0</ele><time>2026-04-04T14:32:49.996Z</time></trkpt><trkpt lat="45.37454523667129" lon="10.535583664737848"><ele>138.5</ele><time>2026-04-04T14:32:52.996Z</time></trkpt><trkpt lat="45.37458226839293" lon="10.535494000346421"><ele>140.0</ele><time>2026-04-04T14:32:55.996Z</time></trkpt><trkpt lat="45.374610695628945" lon="10.535352384254779"><ele>141.5</ele><time>2026-04-04T14:32:58.998Z</time></trkpt><trkpt lat="45.374614977441944" lon="10.53522553508517"><ele>143.0</ele><time>2026-04-04T14:33:00.998Z</time></trkpt><trkpt lat="45.37461063615672" lon="10.535116499163763"><ele>143.28571428571428</ele><time>2026-04-04T14:33:02.998Z</time></trkpt><trkpt lat="45.374626759231326" lon="10.535027443392945"><ele>143.57142857142856</ele><time>2026-04-04T14:33:04.998Z</time></trkpt><trkpt lat="45.37463266806945" lon="10.534930797129347"><ele>143.85714285714286</ele><time>2026-04-04T14:33:06.999Z</time></trkpt><trkpt lat="45.37464309052139" lon="10.534804503321945"><ele>144.14285714285714</ele><time>2026-04-04T14:33:09.998Z</time></trkpt><trkpt lat="45.37465192488372" lon="10.534710171304631"><ele>144.42857142857144</ele><time>2026-04-04T14:33:11.998Z</time></trkpt><trkpt lat="45.37468580466886" lon="10.534602895210702"><ele>144.71428571428572</ele><time>2026-04-04T14:33:14.998Z</time></trkpt><trkpt lat="45.374730230213544" lon="10.534528254098568"><ele>145.0</ele><time>2026-04-04T14:33:17.998Z</time></trkpt><trkpt lat="45.374810332541635" lon="10.534518090169074"><ele>143.0</ele><time>2026-04-04T14:33:22.998Z</time></trkpt><trkpt lat="45.374877733565405" lon="10.534550202408862"><ele>141.0</ele><time>2026-04-04T14:33:26.998Z</time></trkpt><trkpt lat="45.374956453530245" lon="10.534587893926812"><ele>139.0</ele><time>2026-04-04T14:33:30.998Z</time></trkpt><trkpt lat="45.37504722956712" lon="10.534608013924583"><ele>137.0</ele><time>2026-04-04T14:33:34.998Z</time></trkpt><trkpt lat="45.375171705421764" lon="10.534620764611773"><ele>135.0</ele><time>2026-04-04T14:33:39.998Z</time></trkpt><trkpt lat="45.37525711186507" lon="10.534614708637047"><ele>135.0</ele><time>2026-04-04T14:33:42.997Z</time></trkpt><trkpt lat="45.37533359252569" lon="10.534545369799755"><ele>135.0</ele><time>2026-04-04T14:33:44.997Z</time></trkpt><trkpt lat="45.375363072011545" lon="10.534433808135077"><ele>135.0</ele><time>2026-04-04T14:33:46.997Z</time></trkpt><trkpt lat="45.37538587275947" lon="10.534337544633361"><ele>135.0</ele><time>2026-04-04T14:33:48.997Z</time></trkpt><trkpt lat="45.37539115576529" lon="10.53421135888158"><ele>135.0</ele><time>2026-04-04T14:33:50.997Z</time></trkpt><trkpt lat="45.375403927075425" lon="10.534080938178352"><ele>135.0</ele><time>2026-04-04T14:33:52.997Z</time></trkpt><trkpt lat="45.375421819689784" lon="10.53395685417056"><ele>135.0</ele><time>2026-04-04T14:33:54.997Z</time></trkpt><trkpt lat="45.375443343735725" lon="10.533851536675257"><ele>135.0</ele><time>2026-04-04T14:33:56.997Z</time></trkpt><trkpt lat="45.375459652900325" lon="10.533751958185261"><ele>135.0</ele><time>2026-04-04T14:33:58.997Z</time></trkpt><trkpt lat="45.37546025242572" lon="10.533645752250289"><ele>135.0</ele><time>2026-04-04T14:34:00.997Z</time></trkpt><trkpt lat="45.375461665966846" lon="10.53354540610631"><ele>135.0</ele><time>2026-04-04T14:34:02.997Z</time></trkpt><trkpt lat="45.375461549887376" lon="10.53345571136179"><ele>135.0</ele><time>2026-04-04T14:34:04.997Z</time></trkpt><trkpt lat="45.37546065259385" lon="10.533358173556643"><ele>135.0</ele><time>2026-04-04T14:34:06.997Z</time></trkpt><trkpt lat="45.37545652611077" lon="10.533233211738702"><ele>134.57142857142856</ele><time>2026-04-04T14:34:09.997Z</time></trkpt><trkpt lat="45.37543302398001" lon="10.533143565185902"><ele>134.14285714285714</ele><time>2026-04-04T14:34:11.997Z</time></trkpt><trkpt lat="45.37543926960093" lon="10.533020461899126"><ele>133.71428571428572</ele><time>2026-04-04T14:34:14.997Z</time></trkpt><trkpt lat="45.375447845735415" lon="10.532905496971711"><ele>133.28571428571428</ele><time>2026-04-04T14:34:17.997Z</time></trkpt><trkpt lat="45.375451945591784" lon="10.532816009178122"><ele>132.85714285714286</ele><time>2026-04-04T14:34:19.997Z</time></trkpt><trkpt lat="45.375457190945966" lon="10.532721116507886"><ele>132.42857142857142</ele><time>2026-04-04T14:34:21.997Z</time></trkpt><trkpt lat="45.375474338033435" lon="10.532606330644589"><ele>132.0</ele><time>2026-04-04T14:34:24.997Z</time></trkpt><trkpt lat="45.37547656192445" lon="10.532509786710323"><ele>131.28571428571428</ele><time>2026-04-04T14:34:26.997Z</time></trkpt><trkpt lat="45.37549050951122" lon="10.532417694892406"><ele>130.57142857142858</ele><time>2026-04-04T14:34:28.997Z</time></trkpt><trkpt lat="45.37548439394905" lon="10.532323656235276"><ele>129.85714285714286</ele><time>2026-04-04T14:34:30.997Z</time></trkpt><trkpt lat="45.37546695526069" lon="10.532214327114035"><ele>129.14285714285714</ele><time>2026-04-04T14:34:32.997Z</time></trkpt><trkpt lat="45.37544677606799" lon="10.532109190056403"><ele>128.42857142857142</ele><time>2026-04-04T14:34:34.997Z</time></trkpt><trkpt lat="45.375436445845395" lon="10.532012212657419"><ele>127.71428571428572</ele><time>2026-04-04T14:34:36.997Z</time></trkpt><trkpt lat="45.37542295936011" lon="10.531924259362336"><ele>127.0</ele><time>2026-04-04T14:34:38.996Z</time></trkpt><trkpt lat="45.375424031641394" lon="10.531800937052566"><ele>126.57142857142858</ele><time>2026-04-04T14:34:41.996Z</time></trkpt><trkpt lat="45.37543620043392" lon="10.531712337558798"><ele>126.14285714285714</ele><time>2026-04-04T14:34:44.996Z</time></trkpt><trkpt lat="45.375456692984194" lon="10.531607564579243"><ele>125.71428571428572</ele><time>2026-04-04T14:34:48.996Z</time></trkpt><trkpt lat="45.37544499222376" lon="10.531510752935022"><ele>125.28571428571429</ele><time>2026-04-04T14:34:53.996Z</time></trkpt><trkpt lat="45.3754300570342" lon="10.531385503946597"><ele>124.85714285714286</ele><time>2026-04-04T14:34:57.996Z</time></trkpt><trkpt lat="45.375425949200384" lon="10.531274304035815"><ele>124.42857142857143</ele><time>2026-04-04T14:35:02.996Z</time></trkpt><trkpt lat="45.37542207161111" lon="10.53117337882918"><ele>124.0</ele><time>2026-04-04T14:35:06.999Z</time></trkpt><trkpt lat="45.375414021480545" lon="10.53108371487659"><ele>121.0</ele><time>2026-04-04T14:35:09.999Z</time></trkpt><trkpt lat="45.37538748114583" lon="10.530994219208255"><ele>121.0</ele><time>2026-04-04T14:35:13.999Z</time></trkpt></trkseg></trk></gpx>